<?xml version="1.0" encoding="UTF-8" standalone="no" ?>
<gpx xmlns="http://www.topografix.com/GPX/1/1" xmlns:xsi="http://www.w3.org/2001/XMLSchema-instance" xsi:schemaLocation="http://www.topografix.com/GPX/1/1 http://www.topografix.com/GPX/1/1/gpx.xsd" version="1.1" creator="VisuGPX - https://www.visugpx.com">
  <metadata>
    <name>St Jean des mauvrets-Vauchrétien</name>
    <desc><![CDATA[Région d'Angers]]></desc>
  </metadata>
  <trk>
    <name><![CDATA[St Jean des mauvrets-Vauchrétien_1]]></name>
    <trkseg>
      <trkpt lat="47.39627" lon="-0.4526">
        <ele>28.6</ele>
        <time>2021-05-12T20:52:05Z</time>
      </trkpt>
      <trkpt lat="47.39624" lon="-0.45261">
        <ele>28.4</ele>
        <time>2021-05-12T20:52:06Z</time>
      </trkpt>
      <trkpt lat="47.39572" lon="-0.4525">
        <ele>28.2</ele>
        <time>2021-05-12T20:52:16Z</time>
      </trkpt>
      <trkpt lat="47.39567" lon="-0.45239">
        <ele>28.2</ele>
        <time>2021-05-12T20:52:18Z</time>
      </trkpt>
      <trkpt lat="47.39564" lon="-0.45235">
        <ele>28.4</ele>
        <time>2021-05-12T20:52:19Z</time>
      </trkpt>
      <trkpt lat="47.3956" lon="-0.45233">
        <ele>28.4</ele>
        <time>2021-05-12T20:52:20Z</time>
      </trkpt>
      <trkpt lat="47.39552" lon="-0.45235">
        <ele>28.4</ele>
        <time>2021-05-12T20:52:21Z</time>
      </trkpt>
      <trkpt lat="47.39545" lon="-0.45242">
        <ele>28.2</ele>
        <time>2021-05-12T20:52:23Z</time>
      </trkpt>
      <trkpt lat="47.395" lon="-0.45304">
        <ele>28</ele>
        <time>2021-05-12T20:52:35Z</time>
      </trkpt>
      <trkpt lat="47.3947" lon="-0.45329">
        <ele>28</ele>
        <time>2021-05-12T20:52:42Z</time>
      </trkpt>
      <trkpt lat="47.39407" lon="-0.45355">
        <ele>29.2</ele>
        <time>2021-05-12T20:52:55Z</time>
      </trkpt>
      <trkpt lat="47.39369" lon="-0.45369">
        <ele>29.8</ele>
        <time>2021-05-12T20:53:03Z</time>
      </trkpt>
      <trkpt lat="47.3935" lon="-0.45366">
        <ele>30</ele>
        <time>2021-05-12T20:53:07Z</time>
      </trkpt>
      <trkpt lat="47.39327" lon="-0.4536">
        <ele>30.2</ele>
        <time>2021-05-12T20:53:12Z</time>
      </trkpt>
      <trkpt lat="47.39321" lon="-0.4536">
        <ele>30.2</ele>
        <time>2021-05-12T20:53:13Z</time>
      </trkpt>
      <trkpt lat="47.39316" lon="-0.45363">
        <ele>30.4</ele>
        <time>2021-05-12T20:53:14Z</time>
      </trkpt>
      <trkpt lat="47.39312" lon="-0.45368">
        <ele>30.4</ele>
        <time>2021-05-12T20:53:15Z</time>
      </trkpt>
      <trkpt lat="47.39291" lon="-0.45411">
        <ele>31.4</ele>
        <time>2021-05-12T20:53:22Z</time>
      </trkpt>
      <trkpt lat="47.39281" lon="-0.45429">
        <ele>32</ele>
        <time>2021-05-12T20:53:26Z</time>
      </trkpt>
      <trkpt lat="47.39273" lon="-0.45439">
        <ele>32.2</ele>
        <time>2021-05-12T20:53:28Z</time>
      </trkpt>
      <trkpt lat="47.39224" lon="-0.45485">
        <ele>34</ele>
        <time>2021-05-12T20:53:39Z</time>
      </trkpt>
      <trkpt lat="47.39172" lon="-0.45521">
        <ele>35.8</ele>
        <time>2021-05-12T20:53:51Z</time>
      </trkpt>
      <trkpt lat="47.3912" lon="-0.45566">
        <ele>38.6</ele>
        <time>2021-05-12T20:54:03Z</time>
      </trkpt>
      <trkpt lat="47.39023" lon="-0.45656">
        <ele>41.2</ele>
        <time>2021-05-12T20:54:26Z</time>
      </trkpt>
      <trkpt lat="47.38973" lon="-0.45705">
        <ele>43.2</ele>
        <time>2021-05-12T20:54:38Z</time>
      </trkpt>
      <trkpt lat="47.38926" lon="-0.45754">
        <ele>45</ele>
        <time>2021-05-12T20:54:49Z</time>
      </trkpt>
      <trkpt lat="47.38889" lon="-0.45797">
        <ele>47.2</ele>
        <time>2021-05-12T20:54:59Z</time>
      </trkpt>
      <trkpt lat="47.3889" lon="-0.45809">
        <ele>47.4</ele>
        <time>2021-05-12T20:55:00Z</time>
      </trkpt>
      <trkpt lat="47.3893" lon="-0.4591">
        <ele>46.8</ele>
        <time>2021-05-12T20:55:16Z</time>
      </trkpt>
      <trkpt lat="47.38959" lon="-0.45986">
        <ele>46</ele>
        <time>2021-05-12T20:55:28Z</time>
      </trkpt>
      <trkpt lat="47.38999" lon="-0.46126">
        <ele>42.8</ele>
        <time>2021-05-12T20:55:49Z</time>
      </trkpt>
      <trkpt lat="47.39003" lon="-0.46131">
        <ele>42.6</ele>
        <time>2021-05-12T20:55:50Z</time>
      </trkpt>
      <trkpt lat="47.39007" lon="-0.46134">
        <ele>42.6</ele>
        <time>2021-05-12T20:55:51Z</time>
      </trkpt>
      <trkpt lat="47.39012" lon="-0.46133">
        <ele>42.4</ele>
        <time>2021-05-12T20:55:52Z</time>
      </trkpt>
      <trkpt lat="47.39016" lon="-0.4613">
        <ele>42.4</ele>
        <time>2021-05-12T20:55:53Z</time>
      </trkpt>
      <trkpt lat="47.3903" lon="-0.4612">
        <ele>42.4</ele>
        <time>2021-05-12T20:55:56Z</time>
      </trkpt>
      <trkpt lat="47.39045" lon="-0.46111">
        <ele>42.4</ele>
        <time>2021-05-12T20:55:59Z</time>
      </trkpt>
      <trkpt lat="47.39049" lon="-0.4611">
        <ele>42.4</ele>
        <time>2021-05-12T20:56:00Z</time>
      </trkpt>
      <trkpt lat="47.39053" lon="-0.46114">
        <ele>42.2</ele>
        <time>2021-05-12T20:56:01Z</time>
      </trkpt>
      <trkpt lat="47.39056" lon="-0.4612">
        <ele>41.8</ele>
        <time>2021-05-12T20:56:02Z</time>
      </trkpt>
      <trkpt lat="47.39062" lon="-0.46135">
        <ele>41.4</ele>
        <time>2021-05-12T20:56:04Z</time>
      </trkpt>
      <trkpt lat="47.39091" lon="-0.46248">
        <ele>37.6</ele>
        <time>2021-05-12T20:56:20Z</time>
      </trkpt>
      <trkpt lat="47.39111" lon="-0.46335">
        <ele>35.8</ele>
        <time>2021-05-12T20:56:33Z</time>
      </trkpt>
      <trkpt lat="47.39122" lon="-0.46402">
        <ele>34.4</ele>
        <time>2021-05-12T20:56:42Z</time>
      </trkpt>
      <trkpt lat="47.39126" lon="-0.46411">
        <ele>34.2</ele>
        <time>2021-05-12T20:56:44Z</time>
      </trkpt>
      <trkpt lat="47.39132" lon="-0.46415">
        <ele>34.2</ele>
        <time>2021-05-12T20:56:45Z</time>
      </trkpt>
      <trkpt lat="47.39139" lon="-0.46417">
        <ele>34.2</ele>
        <time>2021-05-12T20:56:46Z</time>
      </trkpt>
      <trkpt lat="47.39146" lon="-0.46415">
        <ele>34.2</ele>
        <time>2021-05-12T20:56:48Z</time>
      </trkpt>
      <trkpt lat="47.39198" lon="-0.46392">
        <ele>33.8</ele>
        <time>2021-05-12T20:56:59Z</time>
      </trkpt>
      <trkpt lat="47.39254" lon="-0.46369">
        <ele>33.2</ele>
        <time>2021-05-12T20:57:10Z</time>
      </trkpt>
      <trkpt lat="47.39313" lon="-0.46344">
        <ele>32.8</ele>
        <time>2021-05-12T20:57:23Z</time>
      </trkpt>
      <trkpt lat="47.3939" lon="-0.46315">
        <ele>32</ele>
        <time>2021-05-12T20:57:38Z</time>
      </trkpt>
      <trkpt lat="47.39508" lon="-0.46267">
        <ele>30</ele>
        <time>2021-05-12T20:58:03Z</time>
      </trkpt>
      <trkpt lat="47.39538" lon="-0.46259">
        <ele>30</ele>
        <time>2021-05-12T20:58:09Z</time>
      </trkpt>
      <trkpt lat="47.39541" lon="-0.46262">
        <ele>29.8</ele>
        <time>2021-05-12T20:58:10Z</time>
      </trkpt>
      <trkpt lat="47.39542" lon="-0.46268">
        <ele>29.8</ele>
        <time>2021-05-12T20:58:11Z</time>
      </trkpt>
      <trkpt lat="47.39541" lon="-0.46274">
        <ele>29.8</ele>
        <time>2021-05-12T20:58:12Z</time>
      </trkpt>
      <trkpt lat="47.39538" lon="-0.46286">
        <ele>30</ele>
        <time>2021-05-12T20:58:13Z</time>
      </trkpt>
      <trkpt lat="47.39523" lon="-0.46376">
        <ele>29.2</ele>
        <time>2021-05-12T20:58:26Z</time>
      </trkpt>
      <trkpt lat="47.39513" lon="-0.46425">
        <ele>30.4</ele>
        <time>2021-05-12T20:58:33Z</time>
      </trkpt>
      <trkpt lat="47.39482" lon="-0.4651">
        <ele>32</ele>
        <time>2021-05-12T20:58:46Z</time>
      </trkpt>
      <trkpt lat="47.39465" lon="-0.46572">
        <ele>33.8</ele>
        <time>2021-05-12T20:58:55Z</time>
      </trkpt>
      <trkpt lat="47.39464" lon="-0.46578">
        <ele>34</ele>
        <time>2021-05-12T20:58:56Z</time>
      </trkpt>
      <trkpt lat="47.39459" lon="-0.46666">
        <ele>35.4</ele>
        <time>2021-05-12T20:59:08Z</time>
      </trkpt>
      <trkpt lat="47.39459" lon="-0.4675">
        <ele>36.2</ele>
        <time>2021-05-12T20:59:19Z</time>
      </trkpt>
      <trkpt lat="47.39462" lon="-0.46845">
        <ele>37</ele>
        <time>2021-05-12T20:59:32Z</time>
      </trkpt>
      <trkpt lat="47.39468" lon="-0.46928">
        <ele>36.8</ele>
        <time>2021-05-12T20:59:44Z</time>
      </trkpt>
      <trkpt lat="47.39472" lon="-0.46958">
        <ele>36.2</ele>
        <time>2021-05-12T20:59:48Z</time>
      </trkpt>
      <trkpt lat="47.3947" lon="-0.46965">
        <ele>36.2</ele>
        <time>2021-05-12T20:59:49Z</time>
      </trkpt>
      <trkpt lat="47.39463" lon="-0.46972">
        <ele>36.2</ele>
        <time>2021-05-12T20:59:50Z</time>
      </trkpt>
      <trkpt lat="47.39278" lon="-0.46963">
        <ele>38</ele>
        <time>2021-05-12T21:00:28Z</time>
      </trkpt>
      <trkpt lat="47.39218" lon="-0.46964">
        <ele>38.6</ele>
        <time>2021-05-12T21:00:40Z</time>
      </trkpt>
      <trkpt lat="47.39161" lon="-0.46978">
        <ele>39</ele>
        <time>2021-05-12T21:00:51Z</time>
      </trkpt>
      <trkpt lat="47.39104" lon="-0.46988">
        <ele>40.2</ele>
        <time>2021-05-12T21:01:03Z</time>
      </trkpt>
      <trkpt lat="47.39076" lon="-0.46989">
        <ele>40.4</ele>
        <time>2021-05-12T21:01:08Z</time>
      </trkpt>
      <trkpt lat="47.39012" lon="-0.46973">
        <ele>41</ele>
        <time>2021-05-12T21:01:21Z</time>
      </trkpt>
      <trkpt lat="47.38953" lon="-0.46978">
        <ele>41.4</ele>
        <time>2021-05-12T21:01:33Z</time>
      </trkpt>
      <trkpt lat="47.38894" lon="-0.46968">
        <ele>41.6</ele>
        <time>2021-05-12T21:01:45Z</time>
      </trkpt>
      <trkpt lat="47.38834" lon="-0.46951">
        <ele>41.8</ele>
        <time>2021-05-12T21:01:57Z</time>
      </trkpt>
      <trkpt lat="47.38776" lon="-0.46949">
        <ele>41.8</ele>
        <time>2021-05-12T21:02:09Z</time>
      </trkpt>
      <trkpt lat="47.38759" lon="-0.46955">
        <ele>41.8</ele>
        <time>2021-05-12T21:02:12Z</time>
      </trkpt>
      <trkpt lat="47.38701" lon="-0.46988">
        <ele>42</ele>
        <time>2021-05-12T21:02:25Z</time>
      </trkpt>
      <trkpt lat="47.38641" lon="-0.47002">
        <ele>42</ele>
        <time>2021-05-12T21:02:37Z</time>
      </trkpt>
      <trkpt lat="47.38622" lon="-0.47006">
        <ele>42.2</ele>
        <time>2021-05-12T21:02:41Z</time>
      </trkpt>
      <trkpt lat="47.38574" lon="-0.47004">
        <ele>43</ele>
        <time>2021-05-12T21:02:50Z</time>
      </trkpt>
      <trkpt lat="47.38509" lon="-0.46995">
        <ele>44.4</ele>
        <time>2021-05-12T21:03:03Z</time>
      </trkpt>
      <trkpt lat="47.38446" lon="-0.46982">
        <ele>45</ele>
        <time>2021-05-12T21:03:16Z</time>
      </trkpt>
      <trkpt lat="47.3837" lon="-0.46971">
        <ele>46</ele>
        <time>2021-05-12T21:03:31Z</time>
      </trkpt>
      <trkpt lat="47.38309" lon="-0.46954">
        <ele>46</ele>
        <time>2021-05-12T21:03:44Z</time>
      </trkpt>
      <trkpt lat="47.38218" lon="-0.46927">
        <ele>47</ele>
        <time>2021-05-12T21:04:02Z</time>
      </trkpt>
      <trkpt lat="47.3821" lon="-0.46921">
        <ele>47</ele>
        <time>2021-05-12T21:04:04Z</time>
      </trkpt>
      <trkpt lat="47.38202" lon="-0.46913">
        <ele>47</ele>
        <time>2021-05-12T21:04:06Z</time>
      </trkpt>
      <trkpt lat="47.38158" lon="-0.46809">
        <ele>47.6</ele>
        <time>2021-05-12T21:04:23Z</time>
      </trkpt>
      <trkpt lat="47.3814" lon="-0.46772">
        <ele>48</ele>
        <time>2021-05-12T21:04:29Z</time>
      </trkpt>
      <trkpt lat="47.38133" lon="-0.46773">
        <ele>48</ele>
        <time>2021-05-12T21:04:30Z</time>
      </trkpt>
      <trkpt lat="47.38128" lon="-0.46779">
        <ele>48</ele>
        <time>2021-05-12T21:04:32Z</time>
      </trkpt>
      <trkpt lat="47.38095" lon="-0.46796">
        <ele>48</ele>
        <time>2021-05-12T21:04:39Z</time>
      </trkpt>
      <trkpt lat="47.38016" lon="-0.46649">
        <ele>49</ele>
        <time>2021-05-12T21:05:04Z</time>
      </trkpt>
      <trkpt lat="47.37976" lon="-0.4658">
        <ele>49</ele>
        <time>2021-05-12T21:05:16Z</time>
      </trkpt>
      <trkpt lat="47.37939" lon="-0.46511">
        <ele>49.4</ele>
        <time>2021-05-12T21:05:28Z</time>
      </trkpt>
      <trkpt lat="47.37856" lon="-0.46367">
        <ele>50.4</ele>
        <time>2021-05-12T21:05:54Z</time>
      </trkpt>
      <trkpt lat="47.37816" lon="-0.46293">
        <ele>51</ele>
        <time>2021-05-12T21:06:07Z</time>
      </trkpt>
      <trkpt lat="47.37775" lon="-0.46226">
        <ele>52</ele>
        <time>2021-05-12T21:06:19Z</time>
      </trkpt>
      <trkpt lat="47.3773" lon="-0.46166">
        <ele>52</ele>
        <time>2021-05-12T21:06:31Z</time>
      </trkpt>
      <trkpt lat="47.37683" lon="-0.46113">
        <ele>52.6</ele>
        <time>2021-05-12T21:06:43Z</time>
      </trkpt>
      <trkpt lat="47.37636" lon="-0.46069">
        <ele>53.2</ele>
        <time>2021-05-12T21:06:54Z</time>
      </trkpt>
      <trkpt lat="47.37603" lon="-0.4604">
        <ele>53.6</ele>
        <time>2021-05-12T21:07:02Z</time>
      </trkpt>
      <trkpt lat="47.3759" lon="-0.46031">
        <ele>53.8</ele>
        <time>2021-05-12T21:07:05Z</time>
      </trkpt>
      <trkpt lat="47.37582" lon="-0.46028">
        <ele>53.8</ele>
        <time>2021-05-12T21:07:07Z</time>
      </trkpt>
      <trkpt lat="47.37577" lon="-0.4603">
        <ele>53.8</ele>
        <time>2021-05-12T21:07:08Z</time>
      </trkpt>
      <trkpt lat="47.37485" lon="-0.46083">
        <ele>53</ele>
        <time>2021-05-12T21:07:27Z</time>
      </trkpt>
      <trkpt lat="47.3744" lon="-0.46104">
        <ele>53</ele>
        <time>2021-05-12T21:07:37Z</time>
      </trkpt>
      <trkpt lat="47.3743" lon="-0.46112">
        <ele>53</ele>
        <time>2021-05-12T21:07:39Z</time>
      </trkpt>
      <trkpt lat="47.37373" lon="-0.46149">
        <ele>53</ele>
        <time>2021-05-12T21:07:51Z</time>
      </trkpt>
      <trkpt lat="47.37326" lon="-0.46171">
        <ele>53</ele>
        <time>2021-05-12T21:08:01Z</time>
      </trkpt>
      <trkpt lat="47.37321" lon="-0.46175">
        <ele>53</ele>
        <time>2021-05-12T21:08:02Z</time>
      </trkpt>
      <trkpt lat="47.37318" lon="-0.46181">
        <ele>53</ele>
        <time>2021-05-12T21:08:04Z</time>
      </trkpt>
      <trkpt lat="47.37316" lon="-0.46189">
        <ele>53</ele>
        <time>2021-05-12T21:08:05Z</time>
      </trkpt>
      <trkpt lat="47.37314" lon="-0.46205">
        <ele>53</ele>
        <time>2021-05-12T21:08:07Z</time>
      </trkpt>
      <trkpt lat="47.37314" lon="-0.46221">
        <ele>53</ele>
        <time>2021-05-12T21:08:09Z</time>
      </trkpt>
      <trkpt lat="47.37316" lon="-0.46229">
        <ele>53</ele>
        <time>2021-05-12T21:08:10Z</time>
      </trkpt>
      <trkpt lat="47.3732" lon="-0.46245">
        <ele>53</ele>
        <time>2021-05-12T21:08:13Z</time>
      </trkpt>
      <trkpt lat="47.3734" lon="-0.46295">
        <ele>53.8</ele>
        <time>2021-05-12T21:08:20Z</time>
      </trkpt>
      <trkpt lat="47.37363" lon="-0.46335">
        <ele>54.2</ele>
        <time>2021-05-12T21:08:27Z</time>
      </trkpt>
      <trkpt lat="47.37369" lon="-0.46351">
        <ele>54.2</ele>
        <time>2021-05-12T21:08:30Z</time>
      </trkpt>
      <trkpt lat="47.37375" lon="-0.46368">
        <ele>54.4</ele>
        <time>2021-05-12T21:08:33Z</time>
      </trkpt>
      <trkpt lat="47.37385" lon="-0.46393">
        <ele>54.8</ele>
        <time>2021-05-12T21:08:37Z</time>
      </trkpt>
      <trkpt lat="47.37386" lon="-0.46402">
        <ele>55</ele>
        <time>2021-05-12T21:08:38Z</time>
      </trkpt>
      <trkpt lat="47.37385" lon="-0.4641">
        <ele>55.2</ele>
        <time>2021-05-12T21:08:39Z</time>
      </trkpt>
      <trkpt lat="47.37382" lon="-0.46418">
        <ele>55.2</ele>
        <time>2021-05-12T21:08:40Z</time>
      </trkpt>
      <trkpt lat="47.37372" lon="-0.46429">
        <ele>55.4</ele>
        <time>2021-05-12T21:08:43Z</time>
      </trkpt>
      <trkpt lat="47.37362" lon="-0.46442">
        <ele>55.6</ele>
        <time>2021-05-12T21:08:45Z</time>
      </trkpt>
      <trkpt lat="47.37351" lon="-0.46455">
        <ele>55.8</ele>
        <time>2021-05-12T21:08:48Z</time>
      </trkpt>
      <trkpt lat="47.37345" lon="-0.4646">
        <ele>55.8</ele>
        <time>2021-05-12T21:08:50Z</time>
      </trkpt>
      <trkpt lat="47.37306" lon="-0.46482">
        <ele>56</ele>
        <time>2021-05-12T21:08:58Z</time>
      </trkpt>
      <trkpt lat="47.37292" lon="-0.46487">
        <ele>56</ele>
        <time>2021-05-12T21:09:01Z</time>
      </trkpt>
      <trkpt lat="47.37286" lon="-0.46493">
        <ele>56</ele>
        <time>2021-05-12T21:09:02Z</time>
      </trkpt>
      <trkpt lat="47.37277" lon="-0.46506">
        <ele>56</ele>
        <time>2021-05-12T21:09:05Z</time>
      </trkpt>
      <trkpt lat="47.37271" lon="-0.46511">
        <ele>55.8</ele>
        <time>2021-05-12T21:09:06Z</time>
      </trkpt>
      <trkpt lat="47.37264" lon="-0.46514">
        <ele>55.6</ele>
        <time>2021-05-12T21:09:07Z</time>
      </trkpt>
      <trkpt lat="47.37258" lon="-0.46514">
        <ele>55.6</ele>
        <time>2021-05-12T21:09:09Z</time>
      </trkpt>
      <trkpt lat="47.37241" lon="-0.46508">
        <ele>55.2</ele>
        <time>2021-05-12T21:09:12Z</time>
      </trkpt>
      <trkpt lat="47.37208" lon="-0.46511">
        <ele>54.6</ele>
        <time>2021-05-12T21:09:19Z</time>
      </trkpt>
      <trkpt lat="47.37199" lon="-0.46516">
        <ele>54.4</ele>
        <time>2021-05-12T21:09:21Z</time>
      </trkpt>
      <trkpt lat="47.37108" lon="-0.46585">
        <ele>55</ele>
        <time>2021-05-12T21:09:41Z</time>
      </trkpt>
      <trkpt lat="47.37056" lon="-0.46624">
        <ele>56.4</ele>
        <time>2021-05-12T21:09:53Z</time>
      </trkpt>
      <trkpt lat="47.37031" lon="-0.46649">
        <ele>58</ele>
        <time>2021-05-12T21:09:59Z</time>
      </trkpt>
      <trkpt lat="47.3703" lon="-0.46655">
        <ele>58.2</ele>
        <time>2021-05-12T21:10:00Z</time>
      </trkpt>
      <trkpt lat="47.3703" lon="-0.46662">
        <ele>58.2</ele>
        <time>2021-05-12T21:10:01Z</time>
      </trkpt>
      <trkpt lat="47.37033" lon="-0.46674">
        <ele>58.6</ele>
        <time>2021-05-12T21:10:03Z</time>
      </trkpt>
      <trkpt lat="47.37039" lon="-0.4669">
        <ele>59</ele>
        <time>2021-05-12T21:10:05Z</time>
      </trkpt>
      <trkpt lat="47.37049" lon="-0.4674">
        <ele>60.8</ele>
        <time>2021-05-12T21:10:12Z</time>
      </trkpt>
      <trkpt lat="47.37044" lon="-0.46768">
        <ele>61.4</ele>
        <time>2021-05-12T21:10:16Z</time>
      </trkpt>
      <trkpt lat="47.37047" lon="-0.4678">
        <ele>61.8</ele>
        <time>2021-05-12T21:10:18Z</time>
      </trkpt>
      <trkpt lat="47.37054" lon="-0.46794">
        <ele>62.4</ele>
        <time>2021-05-12T21:10:20Z</time>
      </trkpt>
      <trkpt lat="47.37053" lon="-0.46846">
        <ele>63.2</ele>
        <time>2021-05-12T21:10:27Z</time>
      </trkpt>
      <trkpt lat="47.37057" lon="-0.46869">
        <ele>63.4</ele>
        <time>2021-05-12T21:10:30Z</time>
      </trkpt>
      <trkpt lat="47.37089" lon="-0.46983">
        <ele>63</ele>
        <time>2021-05-12T21:10:47Z</time>
      </trkpt>
      <trkpt lat="47.3709" lon="-0.4699">
        <ele>62.6</ele>
        <time>2021-05-12T21:10:48Z</time>
      </trkpt>
      <trkpt lat="47.37089" lon="-0.46997">
        <ele>62.2</ele>
        <time>2021-05-12T21:10:49Z</time>
      </trkpt>
      <trkpt lat="47.37087" lon="-0.47002">
        <ele>61.8</ele>
        <time>2021-05-12T21:10:50Z</time>
      </trkpt>
      <trkpt lat="47.37082" lon="-0.47006">
        <ele>61.4</ele>
        <time>2021-05-12T21:10:51Z</time>
      </trkpt>
      <trkpt lat="47.37073" lon="-0.47008">
        <ele>60.8</ele>
        <time>2021-05-12T21:10:53Z</time>
      </trkpt>
      <trkpt lat="47.37043" lon="-0.47019">
        <ele>58.8</ele>
        <time>2021-05-12T21:10:59Z</time>
      </trkpt>
      <trkpt lat="47.37019" lon="-0.47034">
        <ele>55.6</ele>
        <time>2021-05-12T21:11:04Z</time>
      </trkpt>
      <trkpt lat="47.37016" lon="-0.47041">
        <ele>55</ele>
        <time>2021-05-12T21:11:06Z</time>
      </trkpt>
      <trkpt lat="47.37016" lon="-0.4705">
        <ele>54.6</ele>
        <time>2021-05-12T21:11:07Z</time>
      </trkpt>
      <trkpt lat="47.37017" lon="-0.47058">
        <ele>54.4</ele>
        <time>2021-05-12T21:11:08Z</time>
      </trkpt>
      <trkpt lat="47.37048" lon="-0.47144">
        <ele>52.8</ele>
        <time>2021-05-12T21:11:21Z</time>
      </trkpt>
      <trkpt lat="47.37063" lon="-0.47183">
        <ele>51.6</ele>
        <time>2021-05-12T21:11:27Z</time>
      </trkpt>
      <trkpt lat="47.37064" lon="-0.47188">
        <ele>51.4</ele>
        <time>2021-05-12T21:11:28Z</time>
      </trkpt>
      <trkpt lat="47.3706" lon="-0.47196">
        <ele>51</ele>
        <time>2021-05-12T21:11:29Z</time>
      </trkpt>
      <trkpt lat="47.37055" lon="-0.47199">
        <ele>50.8</ele>
        <time>2021-05-12T21:11:31Z</time>
      </trkpt>
      <trkpt lat="47.3704" lon="-0.47205">
        <ele>50.4</ele>
        <time>2021-05-12T21:11:34Z</time>
      </trkpt>
      <trkpt lat="47.36983" lon="-0.47245">
        <ele>48.8</ele>
        <time>2021-05-12T21:11:46Z</time>
      </trkpt>
      <trkpt lat="47.36926" lon="-0.47277">
        <ele>47.2</ele>
        <time>2021-05-12T21:11:59Z</time>
      </trkpt>
      <trkpt lat="47.36866" lon="-0.47295">
        <ele>47</ele>
        <time>2021-05-12T21:12:11Z</time>
      </trkpt>
      <trkpt lat="47.36807" lon="-0.47309">
        <ele>45.2</ele>
        <time>2021-05-12T21:12:23Z</time>
      </trkpt>
      <trkpt lat="47.36745" lon="-0.47333">
        <ele>43.8</ele>
        <time>2021-05-12T21:12:36Z</time>
      </trkpt>
      <trkpt lat="47.3669" lon="-0.47361">
        <ele>42.8</ele>
        <time>2021-05-12T21:12:47Z</time>
      </trkpt>
      <trkpt lat="47.36627" lon="-0.47384">
        <ele>40.4</ele>
        <time>2021-05-12T21:13:00Z</time>
      </trkpt>
      <trkpt lat="47.36569" lon="-0.47408">
        <ele>38</ele>
        <time>2021-05-12T21:13:12Z</time>
      </trkpt>
      <trkpt lat="47.36507" lon="-0.47438">
        <ele>35.6</ele>
        <time>2021-05-12T21:13:25Z</time>
      </trkpt>
      <trkpt lat="47.36457" lon="-0.47485">
        <ele>33.8</ele>
        <time>2021-05-12T21:13:37Z</time>
      </trkpt>
      <trkpt lat="47.36406" lon="-0.4754">
        <ele>32.2</ele>
        <time>2021-05-12T21:13:50Z</time>
      </trkpt>
      <trkpt lat="47.36398" lon="-0.47545">
        <ele>32</ele>
        <time>2021-05-12T21:13:52Z</time>
      </trkpt>
      <trkpt lat="47.3639" lon="-0.47548">
        <ele>31.6</ele>
        <time>2021-05-12T21:13:53Z</time>
      </trkpt>
      <trkpt lat="47.36381" lon="-0.47549">
        <ele>31.2</ele>
        <time>2021-05-12T21:13:55Z</time>
      </trkpt>
      <trkpt lat="47.36372" lon="-0.47549">
        <ele>30.8</ele>
        <time>2021-05-12T21:13:57Z</time>
      </trkpt>
      <trkpt lat="47.36363" lon="-0.47546">
        <ele>30.4</ele>
        <time>2021-05-12T21:13:59Z</time>
      </trkpt>
      <trkpt lat="47.36355" lon="-0.47541">
        <ele>30</ele>
        <time>2021-05-12T21:14:00Z</time>
      </trkpt>
      <trkpt lat="47.36348" lon="-0.47533">
        <ele>29.6</ele>
        <time>2021-05-12T21:14:02Z</time>
      </trkpt>
      <trkpt lat="47.36343" lon="-0.47524">
        <ele>29.4</ele>
        <time>2021-05-12T21:14:04Z</time>
      </trkpt>
      <trkpt lat="47.36333" lon="-0.47506">
        <ele>29</ele>
        <time>2021-05-12T21:14:07Z</time>
      </trkpt>
      <trkpt lat="47.36324" lon="-0.47491">
        <ele>28.8</ele>
        <time>2021-05-12T21:14:10Z</time>
      </trkpt>
      <trkpt lat="47.36313" lon="-0.47479">
        <ele>29</ele>
        <time>2021-05-12T21:14:12Z</time>
      </trkpt>
      <trkpt lat="47.36295" lon="-0.47464">
        <ele>29.2</ele>
        <time>2021-05-12T21:14:16Z</time>
      </trkpt>
      <trkpt lat="47.36252" lon="-0.47446">
        <ele>30.8</ele>
        <time>2021-05-12T21:14:25Z</time>
      </trkpt>
      <trkpt lat="47.36218" lon="-0.47444">
        <ele>33</ele>
        <time>2021-05-12T21:14:32Z</time>
      </trkpt>
      <trkpt lat="47.36211" lon="-0.47454">
        <ele>33.4</ele>
        <time>2021-05-12T21:14:34Z</time>
      </trkpt>
      <trkpt lat="47.3621" lon="-0.47459">
        <ele>33.4</ele>
        <time>2021-05-12T21:14:35Z</time>
      </trkpt>
      <trkpt lat="47.36211" lon="-0.47485">
        <ele>32.8</ele>
        <time>2021-05-12T21:14:38Z</time>
      </trkpt>
      <trkpt lat="47.36208" lon="-0.4754">
        <ele>32</ele>
        <time>2021-05-12T21:14:46Z</time>
      </trkpt>
      <trkpt lat="47.36204" lon="-0.47581">
        <ele>31.4</ele>
        <time>2021-05-12T21:14:52Z</time>
      </trkpt>
      <trkpt lat="47.36199" lon="-0.47658">
        <ele>29.6</ele>
        <time>2021-05-12T21:15:02Z</time>
      </trkpt>
      <trkpt lat="47.36197" lon="-0.47665">
        <ele>29.4</ele>
        <time>2021-05-12T21:15:03Z</time>
      </trkpt>
      <trkpt lat="47.36193" lon="-0.47669">
        <ele>29.6</ele>
        <time>2021-05-12T21:15:04Z</time>
      </trkpt>
      <trkpt lat="47.36138" lon="-0.47692">
        <ele>32.2</ele>
        <time>2021-05-12T21:15:16Z</time>
      </trkpt>
      <trkpt lat="47.3613" lon="-0.47701">
        <ele>32.6</ele>
        <time>2021-05-12T21:15:18Z</time>
      </trkpt>
      <trkpt lat="47.36127" lon="-0.47707">
        <ele>32.6</ele>
        <time>2021-05-12T21:15:19Z</time>
      </trkpt>
      <trkpt lat="47.36122" lon="-0.47718">
        <ele>32.8</ele>
        <time>2021-05-12T21:15:20Z</time>
      </trkpt>
      <trkpt lat="47.36119" lon="-0.47729">
        <ele>33</ele>
        <time>2021-05-12T21:15:22Z</time>
      </trkpt>
      <trkpt lat="47.36119" lon="-0.47735">
        <ele>33.4</ele>
        <time>2021-05-12T21:15:23Z</time>
      </trkpt>
      <trkpt lat="47.36123" lon="-0.47771">
        <ele>36.4</ele>
        <time>2021-05-12T21:15:28Z</time>
      </trkpt>
      <trkpt lat="47.36136" lon="-0.47802">
        <ele>38.4</ele>
        <time>2021-05-12T21:15:33Z</time>
      </trkpt>
      <trkpt lat="47.36143" lon="-0.4786">
        <ele>40.4</ele>
        <time>2021-05-12T21:15:41Z</time>
      </trkpt>
      <trkpt lat="47.3614" lon="-0.47907">
        <ele>41.6</ele>
        <time>2021-05-12T21:15:47Z</time>
      </trkpt>
      <trkpt lat="47.36137" lon="-0.47909">
        <ele>41.6</ele>
        <time>2021-05-12T21:15:48Z</time>
      </trkpt>
      <trkpt lat="47.36129" lon="-0.47911">
        <ele>41.8</ele>
        <time>2021-05-12T21:15:50Z</time>
      </trkpt>
      <trkpt lat="47.3607" lon="-0.47913">
        <ele>41.8</ele>
        <time>2021-05-12T21:16:01Z</time>
      </trkpt>
      <trkpt lat="47.36036" lon="-0.47911">
        <ele>41.8</ele>
        <time>2021-05-12T21:16:08Z</time>
      </trkpt>
      <trkpt lat="47.36027" lon="-0.47902">
        <ele>41.4</ele>
        <time>2021-05-12T21:16:10Z</time>
      </trkpt>
      <trkpt lat="47.3597" lon="-0.47892">
        <ele>42.6</ele>
        <time>2021-05-12T21:16:22Z</time>
      </trkpt>
      <trkpt lat="47.35914" lon="-0.47895">
        <ele>43.4</ele>
        <time>2021-05-12T21:16:33Z</time>
      </trkpt>
      <trkpt lat="47.35913" lon="-0.47901">
        <ele>43.6</ele>
        <time>2021-05-12T21:16:34Z</time>
      </trkpt>
      <trkpt lat="47.35914" lon="-0.4791">
        <ele>43.8</ele>
        <time>2021-05-12T21:16:35Z</time>
      </trkpt>
      <trkpt lat="47.35915" lon="-0.47996">
        <ele>45.2</ele>
        <time>2021-05-12T21:16:47Z</time>
      </trkpt>
      <trkpt lat="47.35914" lon="-0.48022">
        <ele>45.6</ele>
        <time>2021-05-12T21:16:51Z</time>
      </trkpt>
      <trkpt lat="47.35914" lon="-0.48127">
        <ele>46.4</ele>
        <time>2021-05-12T21:17:05Z</time>
      </trkpt>
      <trkpt lat="47.35913" lon="-0.48133">
        <ele>46.4</ele>
        <time>2021-05-12T21:17:06Z</time>
      </trkpt>
      <trkpt lat="47.35908" lon="-0.48142">
        <ele>46.6</ele>
        <time>2021-05-12T21:17:07Z</time>
      </trkpt>
      <trkpt lat="47.35905" lon="-0.48145">
        <ele>46.6</ele>
        <time>2021-05-12T21:17:08Z</time>
      </trkpt>
      <trkpt lat="47.35893" lon="-0.4815">
        <ele>47</ele>
        <time>2021-05-12T21:17:11Z</time>
      </trkpt>
      <trkpt lat="47.35835" lon="-0.48157">
        <ele>47</ele>
        <time>2021-05-12T21:17:22Z</time>
      </trkpt>
      <trkpt lat="47.35747" lon="-0.48159">
        <ele>47.8</ele>
        <time>2021-05-12T21:17:40Z</time>
      </trkpt>
      <trkpt lat="47.35688" lon="-0.4815">
        <ele>48.4</ele>
        <time>2021-05-12T21:17:52Z</time>
      </trkpt>
      <trkpt lat="47.35628" lon="-0.48159">
        <ele>49</ele>
        <time>2021-05-12T21:18:04Z</time>
      </trkpt>
      <trkpt lat="47.35619" lon="-0.48164">
        <ele>49</ele>
        <time>2021-05-12T21:18:06Z</time>
      </trkpt>
      <trkpt lat="47.35567" lon="-0.4821">
        <ele>50</ele>
        <time>2021-05-12T21:18:18Z</time>
      </trkpt>
      <trkpt lat="47.35516" lon="-0.48249">
        <ele>51.2</ele>
        <time>2021-05-12T21:18:29Z</time>
      </trkpt>
      <trkpt lat="47.35463" lon="-0.48285">
        <ele>52.4</ele>
        <time>2021-05-12T21:18:41Z</time>
      </trkpt>
      <trkpt lat="47.3541" lon="-0.4831">
        <ele>54</ele>
        <time>2021-05-12T21:18:52Z</time>
      </trkpt>
      <trkpt lat="47.35353" lon="-0.48319">
        <ele>55.4</ele>
        <time>2021-05-12T21:19:04Z</time>
      </trkpt>
      <trkpt lat="47.35232" lon="-0.483">
        <ele>56.6</ele>
        <time>2021-05-12T21:19:28Z</time>
      </trkpt>
      <trkpt lat="47.35172" lon="-0.4828">
        <ele>56.2</ele>
        <time>2021-05-12T21:19:40Z</time>
      </trkpt>
      <trkpt lat="47.35155" lon="-0.48273">
        <ele>56.2</ele>
        <time>2021-05-12T21:19:44Z</time>
      </trkpt>
      <trkpt lat="47.35148" lon="-0.48277">
        <ele>56.6</ele>
        <time>2021-05-12T21:19:45Z</time>
      </trkpt>
      <trkpt lat="47.3514" lon="-0.48288">
        <ele>57</ele>
        <time>2021-05-12T21:19:48Z</time>
      </trkpt>
      <trkpt lat="47.35052" lon="-0.48398">
        <ele>59.4</ele>
        <time>2021-05-12T21:20:11Z</time>
      </trkpt>
      <trkpt lat="47.35041" lon="-0.48408">
        <ele>59.8</ele>
        <time>2021-05-12T21:20:13Z</time>
      </trkpt>
      <trkpt lat="47.34987" lon="-0.48441">
        <ele>63.2</ele>
        <time>2021-05-12T21:20:25Z</time>
      </trkpt>
      <trkpt lat="47.34953" lon="-0.48504">
        <ele>65.6</ele>
        <time>2021-05-12T21:20:36Z</time>
      </trkpt>
      <trkpt lat="47.34941" lon="-0.48586">
        <ele>67.6</ele>
        <time>2021-05-12T21:20:47Z</time>
      </trkpt>
      <trkpt lat="47.34925" lon="-0.48665">
        <ele>70.2</ele>
        <time>2021-05-12T21:20:59Z</time>
      </trkpt>
      <trkpt lat="47.34906" lon="-0.48746">
        <ele>71.2</ele>
        <time>2021-05-12T21:21:10Z</time>
      </trkpt>
      <trkpt lat="47.34861" lon="-0.48779">
        <ele>72</ele>
        <time>2021-05-12T21:21:20Z</time>
      </trkpt>
      <trkpt lat="47.34798" lon="-0.48766">
        <ele>72.2</ele>
        <time>2021-05-12T21:21:33Z</time>
      </trkpt>
      <trkpt lat="47.34717" lon="-0.48739">
        <ele>72.6</ele>
        <time>2021-05-12T21:21:50Z</time>
      </trkpt>
      <trkpt lat="47.34652" lon="-0.4871">
        <ele>73</ele>
        <time>2021-05-12T21:22:03Z</time>
      </trkpt>
      <trkpt lat="47.34592" lon="-0.48689">
        <ele>73.2</ele>
        <time>2021-05-12T21:22:15Z</time>
      </trkpt>
      <trkpt lat="47.34533" lon="-0.4868">
        <ele>73.8</ele>
        <time>2021-05-12T21:22:27Z</time>
      </trkpt>
      <trkpt lat="47.34471" lon="-0.48682">
        <ele>74</ele>
        <time>2021-05-12T21:22:40Z</time>
      </trkpt>
      <trkpt lat="47.34411" lon="-0.48694">
        <ele>74.6</ele>
        <time>2021-05-12T21:22:52Z</time>
      </trkpt>
      <trkpt lat="47.34369" lon="-0.48707">
        <ele>75</ele>
        <time>2021-05-12T21:23:00Z</time>
      </trkpt>
      <trkpt lat="47.34365" lon="-0.48706">
        <ele>75</ele>
        <time>2021-05-12T21:23:01Z</time>
      </trkpt>
      <trkpt lat="47.34363" lon="-0.48702">
        <ele>75</ele>
        <time>2021-05-12T21:23:02Z</time>
      </trkpt>
      <trkpt lat="47.34362" lon="-0.48697">
        <ele>75</ele>
        <time>2021-05-12T21:23:03Z</time>
      </trkpt>
      <trkpt lat="47.34367" lon="-0.48636">
        <ele>75</ele>
        <time>2021-05-12T21:23:11Z</time>
      </trkpt>
      <trkpt lat="47.3437" lon="-0.48614">
        <ele>74.8</ele>
        <time>2021-05-12T21:23:14Z</time>
      </trkpt>
      <trkpt lat="47.34373" lon="-0.48564">
        <ele>74.4</ele>
        <time>2021-05-12T21:23:21Z</time>
      </trkpt>
      <trkpt lat="47.34383" lon="-0.48473">
        <ele>74</ele>
        <time>2021-05-12T21:23:33Z</time>
      </trkpt>
      <trkpt lat="47.34401" lon="-0.48389">
        <ele>74</ele>
        <time>2021-05-12T21:23:45Z</time>
      </trkpt>
      <trkpt lat="47.34405" lon="-0.48377">
        <ele>74</ele>
        <time>2021-05-12T21:23:47Z</time>
      </trkpt>
      <trkpt lat="47.34406" lon="-0.48371">
        <ele>74</ele>
        <time>2021-05-12T21:23:48Z</time>
      </trkpt>
      <trkpt lat="47.34406" lon="-0.48364">
        <ele>74</ele>
        <time>2021-05-12T21:23:49Z</time>
      </trkpt>
      <trkpt lat="47.34402" lon="-0.48351">
        <ele>74</ele>
        <time>2021-05-12T21:23:51Z</time>
      </trkpt>
      <trkpt lat="47.34388" lon="-0.48332">
        <ele>74</ele>
        <time>2021-05-12T21:23:55Z</time>
      </trkpt>
      <trkpt lat="47.34307" lon="-0.48205">
        <ele>74</ele>
        <time>2021-05-12T21:24:19Z</time>
      </trkpt>
      <trkpt lat="47.34274" lon="-0.48127">
        <ele>73</ele>
        <time>2021-05-12T21:24:31Z</time>
      </trkpt>
      <trkpt lat="47.34248" lon="-0.48043">
        <ele>72.2</ele>
        <time>2021-05-12T21:24:44Z</time>
      </trkpt>
      <trkpt lat="47.34228" lon="-0.47959">
        <ele>71</ele>
        <time>2021-05-12T21:24:56Z</time>
      </trkpt>
      <trkpt lat="47.34219" lon="-0.47907">
        <ele>71</ele>
        <time>2021-05-12T21:25:03Z</time>
      </trkpt>
      <trkpt lat="47.34214" lon="-0.47911">
        <ele>71</ele>
        <time>2021-05-12T21:25:04Z</time>
      </trkpt>
      <trkpt lat="47.34177" lon="-0.47985">
        <ele>71.4</ele>
        <time>2021-05-12T21:25:16Z</time>
      </trkpt>
      <trkpt lat="47.34139" lon="-0.4805">
        <ele>72</ele>
        <time>2021-05-12T21:25:28Z</time>
      </trkpt>
      <trkpt lat="47.34115" lon="-0.48091">
        <ele>72</ele>
        <time>2021-05-12T21:25:35Z</time>
      </trkpt>
      <trkpt lat="47.34059" lon="-0.48179">
        <ele>72.8</ele>
        <time>2021-05-12T21:25:52Z</time>
      </trkpt>
      <trkpt lat="47.34008" lon="-0.48231">
        <ele>74</ele>
        <time>2021-05-12T21:26:04Z</time>
      </trkpt>
      <trkpt lat="47.33959" lon="-0.48278">
        <ele>75</ele>
        <time>2021-05-12T21:26:16Z</time>
      </trkpt>
      <trkpt lat="47.33907" lon="-0.48313">
        <ele>76</ele>
        <time>2021-05-12T21:26:27Z</time>
      </trkpt>
      <trkpt lat="47.33856" lon="-0.4835">
        <ele>76</ele>
        <time>2021-05-12T21:26:39Z</time>
      </trkpt>
      <trkpt lat="47.33816" lon="-0.48389">
        <ele>76</ele>
        <time>2021-05-12T21:26:48Z</time>
      </trkpt>
      <trkpt lat="47.33811" lon="-0.48391">
        <ele>76</ele>
        <time>2021-05-12T21:26:49Z</time>
      </trkpt>
      <trkpt lat="47.33806" lon="-0.48392">
        <ele>76</ele>
        <time>2021-05-12T21:26:50Z</time>
      </trkpt>
      <trkpt lat="47.33801" lon="-0.48391">
        <ele>76</ele>
        <time>2021-05-12T21:26:51Z</time>
      </trkpt>
      <trkpt lat="47.33797" lon="-0.48389">
        <ele>76</ele>
        <time>2021-05-12T21:26:52Z</time>
      </trkpt>
      <trkpt lat="47.33793" lon="-0.48385">
        <ele>76</ele>
        <time>2021-05-12T21:26:53Z</time>
      </trkpt>
      <trkpt lat="47.33786" lon="-0.48375">
        <ele>76</ele>
        <time>2021-05-12T21:26:55Z</time>
      </trkpt>
      <trkpt lat="47.3378" lon="-0.48363">
        <ele>76</ele>
        <time>2021-05-12T21:26:57Z</time>
      </trkpt>
      <trkpt lat="47.33763" lon="-0.48325">
        <ele>76</ele>
        <time>2021-05-12T21:27:03Z</time>
      </trkpt>
      <trkpt lat="47.33762" lon="-0.48318">
        <ele>76</ele>
        <time>2021-05-12T21:27:04Z</time>
      </trkpt>
      <trkpt lat="47.3376" lon="-0.4823">
        <ele>76</ele>
        <time>2021-05-12T21:27:16Z</time>
      </trkpt>
      <trkpt lat="47.3375" lon="-0.48168">
        <ele>76</ele>
        <time>2021-05-12T21:27:25Z</time>
      </trkpt>
      <trkpt lat="47.33752" lon="-0.48081">
        <ele>76</ele>
        <time>2021-05-12T21:27:37Z</time>
      </trkpt>
      <trkpt lat="47.33751" lon="-0.48073">
        <ele>76</ele>
        <time>2021-05-12T21:27:38Z</time>
      </trkpt>
      <trkpt lat="47.3373" lon="-0.48008">
        <ele>75.2</ele>
        <time>2021-05-12T21:27:48Z</time>
      </trkpt>
      <trkpt lat="47.33699" lon="-0.47961">
        <ele>75</ele>
        <time>2021-05-12T21:27:57Z</time>
      </trkpt>
      <trkpt lat="47.33684" lon="-0.47925">
        <ele>75</ele>
        <time>2021-05-12T21:28:02Z</time>
      </trkpt>
      <trkpt lat="47.33657" lon="-0.47839">
        <ele>75</ele>
        <time>2021-05-12T21:28:15Z</time>
      </trkpt>
      <trkpt lat="47.3367" lon="-0.47764">
        <ele>74.8</ele>
        <time>2021-05-12T21:28:26Z</time>
      </trkpt>
      <trkpt lat="47.33671" lon="-0.47745">
        <ele>74.6</ele>
        <time>2021-05-12T21:28:29Z</time>
      </trkpt>
      <trkpt lat="47.33669" lon="-0.47725">
        <ele>74.4</ele>
        <time>2021-05-12T21:28:31Z</time>
      </trkpt>
      <trkpt lat="47.3367" lon="-0.47688">
        <ele>73.8</ele>
        <time>2021-05-12T21:28:36Z</time>
      </trkpt>
      <trkpt lat="47.33668" lon="-0.47673">
        <ele>73.6</ele>
        <time>2021-05-12T21:28:38Z</time>
      </trkpt>
      <trkpt lat="47.33663" lon="-0.47651">
        <ele>73.2</ele>
        <time>2021-05-12T21:28:41Z</time>
      </trkpt>
      <trkpt lat="47.33658" lon="-0.47637">
        <ele>73.2</ele>
        <time>2021-05-12T21:28:44Z</time>
      </trkpt>
      <trkpt lat="47.33615" lon="-0.47553">
        <ele>72.2</ele>
        <time>2021-05-12T21:28:58Z</time>
      </trkpt>
      <trkpt lat="47.33591" lon="-0.47479">
        <ele>71.6</ele>
        <time>2021-05-12T21:29:09Z</time>
      </trkpt>
      <trkpt lat="47.3359" lon="-0.47471">
        <ele>71.6</ele>
        <time>2021-05-12T21:29:10Z</time>
      </trkpt>
      <trkpt lat="47.33591" lon="-0.47463">
        <ele>71.6</ele>
        <time>2021-05-12T21:29:11Z</time>
      </trkpt>
      <trkpt lat="47.33592" lon="-0.47455">
        <ele>71.4</ele>
        <time>2021-05-12T21:29:12Z</time>
      </trkpt>
      <trkpt lat="47.336" lon="-0.47434">
        <ele>70.8</ele>
        <time>2021-05-12T21:29:16Z</time>
      </trkpt>
      <trkpt lat="47.33611" lon="-0.47414">
        <ele>70.6</ele>
        <time>2021-05-12T21:29:19Z</time>
      </trkpt>
      <trkpt lat="47.3364" lon="-0.47372">
        <ele>69.6</ele>
        <time>2021-05-12T21:29:27Z</time>
      </trkpt>
      <trkpt lat="47.33644" lon="-0.47356">
        <ele>69.2</ele>
        <time>2021-05-12T21:29:30Z</time>
      </trkpt>
      <trkpt lat="47.33643" lon="-0.47348">
        <ele>69</ele>
        <time>2021-05-12T21:29:31Z</time>
      </trkpt>
      <trkpt lat="47.33642" lon="-0.47339">
        <ele>68.6</ele>
        <time>2021-05-12T21:29:32Z</time>
      </trkpt>
      <trkpt lat="47.33626" lon="-0.47317">
        <ele>67.2</ele>
        <time>2021-05-12T21:29:36Z</time>
      </trkpt>
      <trkpt lat="47.33619" lon="-0.47301">
        <ele>66.4</ele>
        <time>2021-05-12T21:29:39Z</time>
      </trkpt>
      <trkpt lat="47.33598" lon="-0.47264">
        <ele>64.6</ele>
        <time>2021-05-12T21:29:46Z</time>
      </trkpt>
      <trkpt lat="47.33584" lon="-0.47236">
        <ele>63.8</ele>
        <time>2021-05-12T21:29:50Z</time>
      </trkpt>
      <trkpt lat="47.33585" lon="-0.47232">
        <ele>63.8</ele>
        <time>2021-05-12T21:29:51Z</time>
      </trkpt>
      <trkpt lat="47.33596" lon="-0.47214">
        <ele>63.4</ele>
        <time>2021-05-12T21:29:54Z</time>
      </trkpt>
      <trkpt lat="47.3364" lon="-0.47148">
        <ele>62.4</ele>
        <time>2021-05-12T21:30:07Z</time>
      </trkpt>
      <trkpt lat="47.33681" lon="-0.47084">
        <ele>61.4</ele>
        <time>2021-05-12T21:30:19Z</time>
      </trkpt>
      <trkpt lat="47.33686" lon="-0.4707">
        <ele>61</ele>
        <time>2021-05-12T21:30:21Z</time>
      </trkpt>
      <trkpt lat="47.33731" lon="-0.47009">
        <ele>60</ele>
        <time>2021-05-12T21:30:33Z</time>
      </trkpt>
      <trkpt lat="47.33775" lon="-0.46944">
        <ele>59.4</ele>
        <time>2021-05-12T21:30:46Z</time>
      </trkpt>
      <trkpt lat="47.33818" lon="-0.46879">
        <ele>58.4</ele>
        <time>2021-05-12T21:30:58Z</time>
      </trkpt>
      <trkpt lat="47.33856" lon="-0.46816">
        <ele>57.2</ele>
        <time>2021-05-12T21:31:09Z</time>
      </trkpt>
      <trkpt lat="47.33961" lon="-0.46692">
        <ele>56.8</ele>
        <time>2021-05-12T21:31:36Z</time>
      </trkpt>
      <trkpt lat="47.34006" lon="-0.46636">
        <ele>57.4</ele>
        <time>2021-05-12T21:31:48Z</time>
      </trkpt>
      <trkpt lat="47.3403" lon="-0.46601">
        <ele>57.6</ele>
        <time>2021-05-12T21:31:55Z</time>
      </trkpt>
      <trkpt lat="47.34089" lon="-0.46554">
        <ele>58</ele>
        <time>2021-05-12T21:32:08Z</time>
      </trkpt>
      <trkpt lat="47.34141" lon="-0.46514">
        <ele>58.2</ele>
        <time>2021-05-12T21:32:20Z</time>
      </trkpt>
      <trkpt lat="47.34186" lon="-0.46464">
        <ele>57.8</ele>
        <time>2021-05-12T21:32:31Z</time>
      </trkpt>
      <trkpt lat="47.34189" lon="-0.46458">
        <ele>57.6</ele>
        <time>2021-05-12T21:32:32Z</time>
      </trkpt>
      <trkpt lat="47.3426" lon="-0.46309">
        <ele>54</ele>
        <time>2021-05-12T21:32:57Z</time>
      </trkpt>
      <trkpt lat="47.34294" lon="-0.46235">
        <ele>51.4</ele>
        <time>2021-05-12T21:33:09Z</time>
      </trkpt>
      <trkpt lat="47.34294" lon="-0.46219">
        <ele>51.2</ele>
        <time>2021-05-12T21:33:11Z</time>
      </trkpt>
      <trkpt lat="47.34217" lon="-0.46131">
        <ele>49.4</ele>
        <time>2021-05-12T21:33:31Z</time>
      </trkpt>
      <trkpt lat="47.34123" lon="-0.46019">
        <ele>50.8</ele>
        <time>2021-05-12T21:33:55Z</time>
      </trkpt>
      <trkpt lat="47.34042" lon="-0.4592">
        <ele>56</ele>
        <time>2021-05-12T21:34:16Z</time>
      </trkpt>
      <trkpt lat="47.33962" lon="-0.45817">
        <ele>59</ele>
        <time>2021-05-12T21:34:37Z</time>
      </trkpt>
      <trkpt lat="47.33837" lon="-0.45663">
        <ele>58.2</ele>
        <time>2021-05-12T21:35:10Z</time>
      </trkpt>
      <trkpt lat="47.33761" lon="-0.45564">
        <ele>58.8</ele>
        <time>2021-05-12T21:35:30Z</time>
      </trkpt>
      <trkpt lat="47.33761" lon="-0.45559">
        <ele>58.8</ele>
        <time>2021-05-12T21:35:31Z</time>
      </trkpt>
      <trkpt lat="47.33765" lon="-0.45551">
        <ele>58.6</ele>
        <time>2021-05-12T21:35:32Z</time>
      </trkpt>
      <trkpt lat="47.33824" lon="-0.45498">
        <ele>56.4</ele>
        <time>2021-05-12T21:35:46Z</time>
      </trkpt>
      <trkpt lat="47.33875" lon="-0.45451">
        <ele>53.8</ele>
        <time>2021-05-12T21:35:58Z</time>
      </trkpt>
      <trkpt lat="47.33931" lon="-0.45401">
        <ele>51.6</ele>
        <time>2021-05-12T21:36:11Z</time>
      </trkpt>
      <trkpt lat="47.33945" lon="-0.45383">
        <ele>51</ele>
        <time>2021-05-12T21:36:15Z</time>
      </trkpt>
      <trkpt lat="47.33928" lon="-0.45323">
        <ele>50.6</ele>
        <time>2021-05-12T21:36:24Z</time>
      </trkpt>
      <trkpt lat="47.33928" lon="-0.45315">
        <ele>50.4</ele>
        <time>2021-05-12T21:36:25Z</time>
      </trkpt>
      <trkpt lat="47.33929" lon="-0.45308">
        <ele>50.2</ele>
        <time>2021-05-12T21:36:26Z</time>
      </trkpt>
      <trkpt lat="47.33932" lon="-0.45302">
        <ele>50.2</ele>
        <time>2021-05-12T21:36:27Z</time>
      </trkpt>
      <trkpt lat="47.33935" lon="-0.45298">
        <ele>50</ele>
        <time>2021-05-12T21:36:28Z</time>
      </trkpt>
      <trkpt lat="47.33945" lon="-0.45291">
        <ele>49.6</ele>
        <time>2021-05-12T21:36:30Z</time>
      </trkpt>
      <trkpt lat="47.33964" lon="-0.45275">
        <ele>49</ele>
        <time>2021-05-12T21:36:34Z</time>
      </trkpt>
      <trkpt lat="47.33968" lon="-0.4527">
        <ele>48.8</ele>
        <time>2021-05-12T21:36:36Z</time>
      </trkpt>
      <trkpt lat="47.33971" lon="-0.45264">
        <ele>48.6</ele>
        <time>2021-05-12T21:36:37Z</time>
      </trkpt>
      <trkpt lat="47.33972" lon="-0.45256">
        <ele>48.6</ele>
        <time>2021-05-12T21:36:38Z</time>
      </trkpt>
      <trkpt lat="47.33972" lon="-0.45249">
        <ele>48.4</ele>
        <time>2021-05-12T21:36:39Z</time>
      </trkpt>
      <trkpt lat="47.33952" lon="-0.45128">
        <ele>46.6</ele>
        <time>2021-05-12T21:36:56Z</time>
      </trkpt>
      <trkpt lat="47.33924" lon="-0.44963">
        <ele>42</ele>
        <time>2021-05-12T21:37:19Z</time>
      </trkpt>
      <trkpt lat="47.33914" lon="-0.44899">
        <ele>40</ele>
        <time>2021-05-12T21:37:28Z</time>
      </trkpt>
      <trkpt lat="47.33916" lon="-0.44907">
        <ele>40.2</ele>
        <time>2021-05-12T21:37:29Z</time>
      </trkpt>
      <trkpt lat="47.33916" lon="-0.44916">
        <ele>40.6</ele>
        <time>2021-05-12T21:37:30Z</time>
      </trkpt>
      <trkpt lat="47.33913" lon="-0.44901">
        <ele>40.2</ele>
        <time>2021-05-12T21:37:32Z</time>
      </trkpt>
      <trkpt lat="47.33913" lon="-0.44896">
        <ele>40</ele>
        <time>2021-05-12T21:37:33Z</time>
      </trkpt>
      <trkpt lat="47.33901" lon="-0.44811">
        <ele>39.8</ele>
        <time>2021-05-12T21:37:45Z</time>
      </trkpt>
      <trkpt lat="47.3389" lon="-0.44752">
        <ele>39</ele>
        <time>2021-05-12T21:37:53Z</time>
      </trkpt>
      <trkpt lat="47.3385" lon="-0.44668">
        <ele>39.4</ele>
        <time>2021-05-12T21:38:07Z</time>
      </trkpt>
      <trkpt lat="47.33826" lon="-0.44592">
        <ele>41</ele>
        <time>2021-05-12T21:38:18Z</time>
      </trkpt>
      <trkpt lat="47.33814" lon="-0.4451">
        <ele>43.6</ele>
        <time>2021-05-12T21:38:30Z</time>
      </trkpt>
      <trkpt lat="47.33811" lon="-0.44434">
        <ele>46.2</ele>
        <time>2021-05-12T21:38:40Z</time>
      </trkpt>
      <trkpt lat="47.33805" lon="-0.44349">
        <ele>49.2</ele>
        <time>2021-05-12T21:38:52Z</time>
      </trkpt>
      <trkpt lat="47.33853" lon="-0.44317">
        <ele>50.2</ele>
        <time>2021-05-12T21:39:03Z</time>
      </trkpt>
      <trkpt lat="47.3391" lon="-0.44302">
        <ele>52.8</ele>
        <time>2021-05-12T21:39:14Z</time>
      </trkpt>
      <trkpt lat="47.33966" lon="-0.443">
        <ele>56.8</ele>
        <time>2021-05-12T21:39:25Z</time>
      </trkpt>
      <trkpt lat="47.34023" lon="-0.44295">
        <ele>59.6</ele>
        <time>2021-05-12T21:39:37Z</time>
      </trkpt>
      <trkpt lat="47.34081" lon="-0.44299">
        <ele>61</ele>
        <time>2021-05-12T21:39:48Z</time>
      </trkpt>
      <trkpt lat="47.3414" lon="-0.44284">
        <ele>62.4</ele>
        <time>2021-05-12T21:40:00Z</time>
      </trkpt>
      <trkpt lat="47.34198" lon="-0.44308">
        <ele>62</ele>
        <time>2021-05-12T21:40:12Z</time>
      </trkpt>
      <trkpt lat="47.34259" lon="-0.44327">
        <ele>62</ele>
        <time>2021-05-12T21:40:25Z</time>
      </trkpt>
      <trkpt lat="47.34442" lon="-0.44348">
        <ele>60.8</ele>
        <time>2021-05-12T21:41:01Z</time>
      </trkpt>
      <trkpt lat="47.34502" lon="-0.44353">
        <ele>60.8</ele>
        <time>2021-05-12T21:41:14Z</time>
      </trkpt>
      <trkpt lat="47.34621" lon="-0.44368">
        <ele>62</ele>
        <time>2021-05-12T21:41:37Z</time>
      </trkpt>
      <trkpt lat="47.34678" lon="-0.44377">
        <ele>61.6</ele>
        <time>2021-05-12T21:41:49Z</time>
      </trkpt>
      <trkpt lat="47.34735" lon="-0.44383">
        <ele>61</ele>
        <time>2021-05-12T21:42:00Z</time>
      </trkpt>
      <trkpt lat="47.34778" lon="-0.44384">
        <ele>60.4</ele>
        <time>2021-05-12T21:42:09Z</time>
      </trkpt>
      <trkpt lat="47.34836" lon="-0.44371">
        <ele>59.4</ele>
        <time>2021-05-12T21:42:21Z</time>
      </trkpt>
      <trkpt lat="47.34864" lon="-0.44362">
        <ele>59</ele>
        <time>2021-05-12T21:42:27Z</time>
      </trkpt>
      <trkpt lat="47.34904" lon="-0.44346">
        <ele>57.8</ele>
        <time>2021-05-12T21:42:35Z</time>
      </trkpt>
      <trkpt lat="47.34909" lon="-0.44342">
        <ele>57.8</ele>
        <time>2021-05-12T21:42:36Z</time>
      </trkpt>
      <trkpt lat="47.34913" lon="-0.44336">
        <ele>57.6</ele>
        <time>2021-05-12T21:42:37Z</time>
      </trkpt>
      <trkpt lat="47.34917" lon="-0.4433">
        <ele>57.6</ele>
        <time>2021-05-12T21:42:38Z</time>
      </trkpt>
      <trkpt lat="47.34921" lon="-0.44324">
        <ele>57.4</ele>
        <time>2021-05-12T21:42:39Z</time>
      </trkpt>
      <trkpt lat="47.34925" lon="-0.44321">
        <ele>57.2</ele>
        <time>2021-05-12T21:42:40Z</time>
      </trkpt>
      <trkpt lat="47.34934" lon="-0.4432">
        <ele>57.2</ele>
        <time>2021-05-12T21:42:42Z</time>
      </trkpt>
      <trkpt lat="47.34945" lon="-0.44316">
        <ele>56.8</ele>
        <time>2021-05-12T21:42:44Z</time>
      </trkpt>
      <trkpt lat="47.35018" lon="-0.44264">
        <ele>55.4</ele>
        <time>2021-05-12T21:43:01Z</time>
      </trkpt>
      <trkpt lat="47.35059" lon="-0.44227">
        <ele>54.6</ele>
        <time>2021-05-12T21:43:10Z</time>
      </trkpt>
      <trkpt lat="47.3509" lon="-0.44188">
        <ele>53.8</ele>
        <time>2021-05-12T21:43:18Z</time>
      </trkpt>
      <trkpt lat="47.35113" lon="-0.4413">
        <ele>53.2</ele>
        <time>2021-05-12T21:43:27Z</time>
      </trkpt>
      <trkpt lat="47.3512" lon="-0.44106">
        <ele>53</ele>
        <time>2021-05-12T21:43:31Z</time>
      </trkpt>
      <trkpt lat="47.35123" lon="-0.44102">
        <ele>53</ele>
        <time>2021-05-12T21:43:32Z</time>
      </trkpt>
      <trkpt lat="47.3513" lon="-0.44104">
        <ele>53</ele>
        <time>2021-05-12T21:43:33Z</time>
      </trkpt>
      <trkpt lat="47.35134" lon="-0.44112">
        <ele>53</ele>
        <time>2021-05-12T21:43:35Z</time>
      </trkpt>
      <trkpt lat="47.35193" lon="-0.44267">
        <ele>49.8</ele>
        <time>2021-05-12T21:43:59Z</time>
      </trkpt>
      <trkpt lat="47.35203" lon="-0.443">
        <ele>48</ele>
        <time>2021-05-12T21:44:04Z</time>
      </trkpt>
      <trkpt lat="47.35206" lon="-0.44324">
        <ele>47.4</ele>
        <time>2021-05-12T21:44:07Z</time>
      </trkpt>
      <trkpt lat="47.35206" lon="-0.44336">
        <ele>47.2</ele>
        <time>2021-05-12T21:44:09Z</time>
      </trkpt>
      <trkpt lat="47.352" lon="-0.44366">
        <ele>47</ele>
        <time>2021-05-12T21:44:13Z</time>
      </trkpt>
      <trkpt lat="47.35199" lon="-0.44374">
        <ele>47.2</ele>
        <time>2021-05-12T21:44:14Z</time>
      </trkpt>
      <trkpt lat="47.352" lon="-0.44387">
        <ele>47.2</ele>
        <time>2021-05-12T21:44:16Z</time>
      </trkpt>
      <trkpt lat="47.35203" lon="-0.44391">
        <ele>47</ele>
        <time>2021-05-12T21:44:17Z</time>
      </trkpt>
      <trkpt lat="47.35211" lon="-0.44392">
        <ele>46.6</ele>
        <time>2021-05-12T21:44:18Z</time>
      </trkpt>
      <trkpt lat="47.35218" lon="-0.44392">
        <ele>46.2</ele>
        <time>2021-05-12T21:44:20Z</time>
      </trkpt>
      <trkpt lat="47.35234" lon="-0.44388">
        <ele>45.4</ele>
        <time>2021-05-12T21:44:23Z</time>
      </trkpt>
      <trkpt lat="47.35239" lon="-0.44385">
        <ele>45</ele>
        <time>2021-05-12T21:44:24Z</time>
      </trkpt>
      <trkpt lat="47.35244" lon="-0.44384">
        <ele>44.8</ele>
        <time>2021-05-12T21:44:25Z</time>
      </trkpt>
      <trkpt lat="47.35249" lon="-0.44386">
        <ele>44.6</ele>
        <time>2021-05-12T21:44:26Z</time>
      </trkpt>
      <trkpt lat="47.35259" lon="-0.44393">
        <ele>44</ele>
        <time>2021-05-12T21:44:28Z</time>
      </trkpt>
      <trkpt lat="47.35262" lon="-0.44398">
        <ele>43.8</ele>
        <time>2021-05-12T21:44:29Z</time>
      </trkpt>
      <trkpt lat="47.35283" lon="-0.44421">
        <ele>42.8</ele>
        <time>2021-05-12T21:44:34Z</time>
      </trkpt>
      <trkpt lat="47.35289" lon="-0.44432">
        <ele>42.6</ele>
        <time>2021-05-12T21:44:36Z</time>
      </trkpt>
      <trkpt lat="47.35289" lon="-0.44438">
        <ele>42.6</ele>
        <time>2021-05-12T21:44:37Z</time>
      </trkpt>
      <trkpt lat="47.35288" lon="-0.44443">
        <ele>42.8</ele>
        <time>2021-05-12T21:44:38Z</time>
      </trkpt>
      <trkpt lat="47.3528" lon="-0.44458">
        <ele>43.8</ele>
        <time>2021-05-12T21:44:40Z</time>
      </trkpt>
      <trkpt lat="47.35278" lon="-0.44464">
        <ele>44</ele>
        <time>2021-05-12T21:44:41Z</time>
      </trkpt>
      <trkpt lat="47.3528" lon="-0.44477">
        <ele>44.4</ele>
        <time>2021-05-12T21:44:43Z</time>
      </trkpt>
      <trkpt lat="47.35303" lon="-0.44499">
        <ele>44.8</ele>
        <time>2021-05-12T21:44:49Z</time>
      </trkpt>
      <trkpt lat="47.35323" lon="-0.44524">
        <ele>45.4</ele>
        <time>2021-05-12T21:44:54Z</time>
      </trkpt>
      <trkpt lat="47.3534" lon="-0.44545">
        <ele>45.8</ele>
        <time>2021-05-12T21:44:58Z</time>
      </trkpt>
      <trkpt lat="47.3535" lon="-0.44582">
        <ele>47</ele>
        <time>2021-05-12T21:45:04Z</time>
      </trkpt>
      <trkpt lat="47.35353" lon="-0.44587">
        <ele>47</ele>
        <time>2021-05-12T21:45:05Z</time>
      </trkpt>
      <trkpt lat="47.35377" lon="-0.44611">
        <ele>46.4</ele>
        <time>2021-05-12T21:45:10Z</time>
      </trkpt>
      <trkpt lat="47.3538" lon="-0.44613">
        <ele>46.4</ele>
        <time>2021-05-12T21:45:11Z</time>
      </trkpt>
      <trkpt lat="47.35385" lon="-0.44612">
        <ele>46.2</ele>
        <time>2021-05-12T21:45:12Z</time>
      </trkpt>
      <trkpt lat="47.35388" lon="-0.44608">
        <ele>46</ele>
        <time>2021-05-12T21:45:13Z</time>
      </trkpt>
      <trkpt lat="47.35431" lon="-0.44526">
        <ele>41.4</ele>
        <time>2021-05-12T21:45:27Z</time>
      </trkpt>
      <trkpt lat="47.35465" lon="-0.4446">
        <ele>38.4</ele>
        <time>2021-05-12T21:45:38Z</time>
      </trkpt>
      <trkpt lat="47.35481" lon="-0.4443">
        <ele>37.2</ele>
        <time>2021-05-12T21:45:44Z</time>
      </trkpt>
      <trkpt lat="47.35488" lon="-0.44426">
        <ele>37</ele>
        <time>2021-05-12T21:45:45Z</time>
      </trkpt>
      <trkpt lat="47.35492" lon="-0.44428">
        <ele>36.8</ele>
        <time>2021-05-12T21:45:46Z</time>
      </trkpt>
      <trkpt lat="47.3551" lon="-0.44452">
        <ele>36.4</ele>
        <time>2021-05-12T21:45:51Z</time>
      </trkpt>
      <trkpt lat="47.35515" lon="-0.44452">
        <ele>36.4</ele>
        <time>2021-05-12T21:45:52Z</time>
      </trkpt>
      <trkpt lat="47.3552" lon="-0.44451">
        <ele>36.2</ele>
        <time>2021-05-12T21:45:53Z</time>
      </trkpt>
      <trkpt lat="47.3553" lon="-0.44435">
        <ele>36</ele>
        <time>2021-05-12T21:45:56Z</time>
      </trkpt>
      <trkpt lat="47.3554" lon="-0.44411">
        <ele>36</ele>
        <time>2021-05-12T21:45:59Z</time>
      </trkpt>
      <trkpt lat="47.35547" lon="-0.444">
        <ele>36</ele>
        <time>2021-05-12T21:46:02Z</time>
      </trkpt>
      <trkpt lat="47.35566" lon="-0.44351">
        <ele>36.2</ele>
        <time>2021-05-12T21:46:09Z</time>
      </trkpt>
      <trkpt lat="47.35572" lon="-0.44333">
        <ele>36</ele>
        <time>2021-05-12T21:46:12Z</time>
      </trkpt>
      <trkpt lat="47.35575" lon="-0.44327">
        <ele>36</ele>
        <time>2021-05-12T21:46:13Z</time>
      </trkpt>
      <trkpt lat="47.35585" lon="-0.44302">
        <ele>36.4</ele>
        <time>2021-05-12T21:46:17Z</time>
      </trkpt>
      <trkpt lat="47.35603" lon="-0.44266">
        <ele>37</ele>
        <time>2021-05-12T21:46:23Z</time>
      </trkpt>
      <trkpt lat="47.35616" lon="-0.44249">
        <ele>37</ele>
        <time>2021-05-12T21:46:26Z</time>
      </trkpt>
      <trkpt lat="47.35621" lon="-0.44236">
        <ele>37</ele>
        <time>2021-05-12T21:46:28Z</time>
      </trkpt>
      <trkpt lat="47.35638" lon="-0.44201">
        <ele>37</ele>
        <time>2021-05-12T21:46:34Z</time>
      </trkpt>
      <trkpt lat="47.35652" lon="-0.44182">
        <ele>37</ele>
        <time>2021-05-12T21:46:38Z</time>
      </trkpt>
      <trkpt lat="47.35657" lon="-0.44171">
        <ele>37</ele>
        <time>2021-05-12T21:46:40Z</time>
      </trkpt>
      <trkpt lat="47.3566" lon="-0.44167">
        <ele>37</ele>
        <time>2021-05-12T21:46:41Z</time>
      </trkpt>
      <trkpt lat="47.35665" lon="-0.44164">
        <ele>37</ele>
        <time>2021-05-12T21:46:42Z</time>
      </trkpt>
      <trkpt lat="47.35666" lon="-0.44155">
        <ele>37</ele>
        <time>2021-05-12T21:46:43Z</time>
      </trkpt>
      <trkpt lat="47.35672" lon="-0.44138">
        <ele>37</ele>
        <time>2021-05-12T21:46:46Z</time>
      </trkpt>
      <trkpt lat="47.35686" lon="-0.44104">
        <ele>37</ele>
        <time>2021-05-12T21:46:52Z</time>
      </trkpt>
      <trkpt lat="47.35766" lon="-0.43938">
        <ele>37</ele>
        <time>2021-05-12T21:47:19Z</time>
      </trkpt>
      <trkpt lat="47.35799" lon="-0.43867">
        <ele>37</ele>
        <time>2021-05-12T21:47:31Z</time>
      </trkpt>
      <trkpt lat="47.35795" lon="-0.43832">
        <ele>37</ele>
        <time>2021-05-12T21:47:36Z</time>
      </trkpt>
      <trkpt lat="47.35741" lon="-0.43772">
        <ele>37.2</ele>
        <time>2021-05-12T21:47:49Z</time>
      </trkpt>
      <trkpt lat="47.35694" lon="-0.43717">
        <ele>39.4</ele>
        <time>2021-05-12T21:48:01Z</time>
      </trkpt>
      <trkpt lat="47.35663" lon="-0.43667">
        <ele>40.8</ele>
        <time>2021-05-12T21:48:10Z</time>
      </trkpt>
      <trkpt lat="47.35665" lon="-0.43659">
        <ele>40.8</ele>
        <time>2021-05-12T21:48:12Z</time>
      </trkpt>
      <trkpt lat="47.35669" lon="-0.43651">
        <ele>40.6</ele>
        <time>2021-05-12T21:48:13Z</time>
      </trkpt>
      <trkpt lat="47.35695" lon="-0.43525">
        <ele>39.6</ele>
        <time>2021-05-12T21:48:31Z</time>
      </trkpt>
      <trkpt lat="47.35734" lon="-0.43461">
        <ele>39</ele>
        <time>2021-05-12T21:48:42Z</time>
      </trkpt>
      <trkpt lat="47.3578" lon="-0.43404">
        <ele>38</ele>
        <time>2021-05-12T21:48:55Z</time>
      </trkpt>
      <trkpt lat="47.35785" lon="-0.43402">
        <ele>38</ele>
        <time>2021-05-12T21:48:56Z</time>
      </trkpt>
      <trkpt lat="47.35791" lon="-0.43401">
        <ele>38</ele>
        <time>2021-05-12T21:48:57Z</time>
      </trkpt>
      <trkpt lat="47.35797" lon="-0.43401">
        <ele>38</ele>
        <time>2021-05-12T21:48:58Z</time>
      </trkpt>
      <trkpt lat="47.35875" lon="-0.43429">
        <ele>37.6</ele>
        <time>2021-05-12T21:49:14Z</time>
      </trkpt>
      <trkpt lat="47.35911" lon="-0.43444">
        <ele>37.6</ele>
        <time>2021-05-12T21:49:22Z</time>
      </trkpt>
      <trkpt lat="47.35924" lon="-0.43444">
        <ele>37.4</ele>
        <time>2021-05-12T21:49:24Z</time>
      </trkpt>
      <trkpt lat="47.35936" lon="-0.43447">
        <ele>37.2</ele>
        <time>2021-05-12T21:49:27Z</time>
      </trkpt>
      <trkpt lat="47.35975" lon="-0.43462">
        <ele>37</ele>
        <time>2021-05-12T21:49:35Z</time>
      </trkpt>
      <trkpt lat="47.3598" lon="-0.43462">
        <ele>37</ele>
        <time>2021-05-12T21:49:36Z</time>
      </trkpt>
      <trkpt lat="47.35995" lon="-0.43461">
        <ele>37</ele>
        <time>2021-05-12T21:49:39Z</time>
      </trkpt>
      <trkpt lat="47.36" lon="-0.43462">
        <ele>37</ele>
        <time>2021-05-12T21:49:40Z</time>
      </trkpt>
      <trkpt lat="47.36014" lon="-0.4347">
        <ele>37.2</ele>
        <time>2021-05-12T21:49:43Z</time>
      </trkpt>
      <trkpt lat="47.36039" lon="-0.43489">
        <ele>37.8</ele>
        <time>2021-05-12T21:49:48Z</time>
      </trkpt>
      <trkpt lat="47.36069" lon="-0.4352">
        <ele>38</ele>
        <time>2021-05-12T21:49:56Z</time>
      </trkpt>
      <trkpt lat="47.36082" lon="-0.43527">
        <ele>38</ele>
        <time>2021-05-12T21:49:58Z</time>
      </trkpt>
      <trkpt lat="47.36164" lon="-0.43558">
        <ele>39</ele>
        <time>2021-05-12T21:50:15Z</time>
      </trkpt>
      <trkpt lat="47.36218" lon="-0.43582">
        <ele>40.2</ele>
        <time>2021-05-12T21:50:27Z</time>
      </trkpt>
      <trkpt lat="47.36277" lon="-0.43611">
        <ele>40.8</ele>
        <time>2021-05-12T21:50:39Z</time>
      </trkpt>
      <trkpt lat="47.36444" lon="-0.4369">
        <ele>43</ele>
        <time>2021-05-12T21:51:14Z</time>
      </trkpt>
      <trkpt lat="47.36558" lon="-0.4374">
        <ele>44</ele>
        <time>2021-05-12T21:51:38Z</time>
      </trkpt>
      <trkpt lat="47.36568" lon="-0.43744">
        <ele>44</ele>
        <time>2021-05-12T21:51:40Z</time>
      </trkpt>
      <trkpt lat="47.36572" lon="-0.43748">
        <ele>44</ele>
        <time>2021-05-12T21:51:41Z</time>
      </trkpt>
      <trkpt lat="47.36646" lon="-0.43783">
        <ele>45</ele>
        <time>2021-05-12T21:51:57Z</time>
      </trkpt>
      <trkpt lat="47.36659" lon="-0.43785">
        <ele>45</ele>
        <time>2021-05-12T21:51:59Z</time>
      </trkpt>
      <trkpt lat="47.36667" lon="-0.43782">
        <ele>45</ele>
        <time>2021-05-12T21:52:01Z</time>
      </trkpt>
      <trkpt lat="47.36721" lon="-0.43748">
        <ele>46</ele>
        <time>2021-05-12T21:52:13Z</time>
      </trkpt>
      <trkpt lat="47.36825" lon="-0.43677">
        <ele>47.4</ele>
        <time>2021-05-12T21:52:36Z</time>
      </trkpt>
      <trkpt lat="47.3688" lon="-0.43653">
        <ele>48.6</ele>
        <time>2021-05-12T21:52:47Z</time>
      </trkpt>
      <trkpt lat="47.36936" lon="-0.43647">
        <ele>49.2</ele>
        <time>2021-05-12T21:52:58Z</time>
      </trkpt>
      <trkpt lat="47.36956" lon="-0.43639">
        <ele>49.4</ele>
        <time>2021-05-12T21:53:02Z</time>
      </trkpt>
      <trkpt lat="47.37058" lon="-0.43553">
        <ele>50.8</ele>
        <time>2021-05-12T21:53:26Z</time>
      </trkpt>
      <trkpt lat="47.37075" lon="-0.43541">
        <ele>51</ele>
        <time>2021-05-12T21:53:30Z</time>
      </trkpt>
      <trkpt lat="47.37132" lon="-0.43524">
        <ele>50</ele>
        <time>2021-05-12T21:53:41Z</time>
      </trkpt>
      <trkpt lat="47.37191" lon="-0.43512">
        <ele>49.4</ele>
        <time>2021-05-12T21:53:53Z</time>
      </trkpt>
      <trkpt lat="47.37227" lon="-0.43502">
        <ele>48.6</ele>
        <time>2021-05-12T21:54:01Z</time>
      </trkpt>
      <trkpt lat="47.37233" lon="-0.43493">
        <ele>48.6</ele>
        <time>2021-05-12T21:54:02Z</time>
      </trkpt>
      <trkpt lat="47.37234" lon="-0.43486">
        <ele>48.6</ele>
        <time>2021-05-12T21:54:03Z</time>
      </trkpt>
      <trkpt lat="47.37234" lon="-0.43479">
        <ele>48.6</ele>
        <time>2021-05-12T21:54:04Z</time>
      </trkpt>
      <trkpt lat="47.37232" lon="-0.43465">
        <ele>48.6</ele>
        <time>2021-05-12T21:54:06Z</time>
      </trkpt>
      <trkpt lat="47.3723" lon="-0.4338">
        <ele>48.2</ele>
        <time>2021-05-12T21:54:18Z</time>
      </trkpt>
      <trkpt lat="47.37233" lon="-0.4334">
        <ele>47.6</ele>
        <time>2021-05-12T21:54:23Z</time>
      </trkpt>
      <trkpt lat="47.37235" lon="-0.43333">
        <ele>47.6</ele>
        <time>2021-05-12T21:54:24Z</time>
      </trkpt>
      <trkpt lat="47.37246" lon="-0.43317">
        <ele>47.2</ele>
        <time>2021-05-12T21:54:27Z</time>
      </trkpt>
      <trkpt lat="47.37294" lon="-0.43261">
        <ele>47</ele>
        <time>2021-05-12T21:54:40Z</time>
      </trkpt>
      <trkpt lat="47.37348" lon="-0.43211">
        <ele>46.8</ele>
        <time>2021-05-12T21:54:53Z</time>
      </trkpt>
      <trkpt lat="47.37402" lon="-0.43169">
        <ele>46</ele>
        <time>2021-05-12T21:55:05Z</time>
      </trkpt>
      <trkpt lat="47.37512" lon="-0.43087">
        <ele>46</ele>
        <time>2021-05-12T21:55:29Z</time>
      </trkpt>
      <trkpt lat="47.37539" lon="-0.43065">
        <ele>46</ele>
        <time>2021-05-12T21:55:36Z</time>
      </trkpt>
      <trkpt lat="47.37575" lon="-0.43047">
        <ele>46</ele>
        <time>2021-05-12T21:55:43Z</time>
      </trkpt>
      <trkpt lat="47.37646" lon="-0.43022">
        <ele>46.2</ele>
        <time>2021-05-12T21:55:58Z</time>
      </trkpt>
      <trkpt lat="47.37705" lon="-0.43003">
        <ele>47</ele>
        <time>2021-05-12T21:56:10Z</time>
      </trkpt>
      <trkpt lat="47.37766" lon="-0.42982">
        <ele>47.8</ele>
        <time>2021-05-12T21:56:22Z</time>
      </trkpt>
      <trkpt lat="47.37822" lon="-0.42959">
        <ele>49</ele>
        <time>2021-05-12T21:56:34Z</time>
      </trkpt>
      <trkpt lat="47.37877" lon="-0.42933">
        <ele>50.2</ele>
        <time>2021-05-12T21:56:46Z</time>
      </trkpt>
      <trkpt lat="47.37932" lon="-0.42902">
        <ele>51.6</ele>
        <time>2021-05-12T21:56:57Z</time>
      </trkpt>
      <trkpt lat="47.37987" lon="-0.42866">
        <ele>52.8</ele>
        <time>2021-05-12T21:57:09Z</time>
      </trkpt>
      <trkpt lat="47.38043" lon="-0.42834">
        <ele>54</ele>
        <time>2021-05-12T21:57:21Z</time>
      </trkpt>
      <trkpt lat="47.38098" lon="-0.42806">
        <ele>55.8</ele>
        <time>2021-05-12T21:57:33Z</time>
      </trkpt>
      <trkpt lat="47.38154" lon="-0.4278">
        <ele>58.8</ele>
        <time>2021-05-12T21:57:45Z</time>
      </trkpt>
      <trkpt lat="47.38208" lon="-0.42757">
        <ele>61</ele>
        <time>2021-05-12T21:57:56Z</time>
      </trkpt>
      <trkpt lat="47.38264" lon="-0.42736">
        <ele>63</ele>
        <time>2021-05-12T21:58:08Z</time>
      </trkpt>
      <trkpt lat="47.38323" lon="-0.42726">
        <ele>64.2</ele>
        <time>2021-05-12T21:58:19Z</time>
      </trkpt>
      <trkpt lat="47.38372" lon="-0.42721">
        <ele>64.4</ele>
        <time>2021-05-12T21:58:29Z</time>
      </trkpt>
      <trkpt lat="47.38375" lon="-0.42717">
        <ele>64.4</ele>
        <time>2021-05-12T21:58:30Z</time>
      </trkpt>
      <trkpt lat="47.38376" lon="-0.42712">
        <ele>64.4</ele>
        <time>2021-05-12T21:58:31Z</time>
      </trkpt>
      <trkpt lat="47.38373" lon="-0.42703">
        <ele>64.6</ele>
        <time>2021-05-12T21:58:32Z</time>
      </trkpt>
      <trkpt lat="47.38357" lon="-0.42681">
        <ele>65</ele>
        <time>2021-05-12T21:58:37Z</time>
      </trkpt>
      <trkpt lat="47.38315" lon="-0.42616">
        <ele>65.8</ele>
        <time>2021-05-12T21:58:49Z</time>
      </trkpt>
      <trkpt lat="47.3827" lon="-0.42561">
        <ele>65.6</ele>
        <time>2021-05-12T21:59:00Z</time>
      </trkpt>
      <trkpt lat="47.38252" lon="-0.42541">
        <ele>65</ele>
        <time>2021-05-12T21:59:05Z</time>
      </trkpt>
      <trkpt lat="47.3824" lon="-0.42534">
        <ele>64.6</ele>
        <time>2021-05-12T21:59:07Z</time>
      </trkpt>
      <trkpt lat="47.38227" lon="-0.42531">
        <ele>64</ele>
        <time>2021-05-12T21:59:10Z</time>
      </trkpt>
      <trkpt lat="47.382" lon="-0.42528">
        <ele>62.6</ele>
        <time>2021-05-12T21:59:16Z</time>
      </trkpt>
      <trkpt lat="47.38193" lon="-0.42525">
        <ele>62.4</ele>
        <time>2021-05-12T21:59:17Z</time>
      </trkpt>
      <trkpt lat="47.38179" lon="-0.42514">
        <ele>61.6</ele>
        <time>2021-05-12T21:59:20Z</time>
      </trkpt>
      <trkpt lat="47.38167" lon="-0.425">
        <ele>60.8</ele>
        <time>2021-05-12T21:59:23Z</time>
      </trkpt>
      <trkpt lat="47.38095" lon="-0.42405">
        <ele>56</ele>
        <time>2021-05-12T21:59:43Z</time>
      </trkpt>
      <trkpt lat="47.38002" lon="-0.4231">
        <ele>57.6</ele>
        <time>2021-05-12T22:00:05Z</time>
      </trkpt>
      <trkpt lat="47.37998" lon="-0.42302">
        <ele>57.8</ele>
        <time>2021-05-12T22:00:07Z</time>
      </trkpt>
      <trkpt lat="47.37964" lon="-0.4223">
        <ele>59.4</ele>
        <time>2021-05-12T22:00:18Z</time>
      </trkpt>
      <trkpt lat="47.37955" lon="-0.42195">
        <ele>60</ele>
        <time>2021-05-12T22:00:24Z</time>
      </trkpt>
      <trkpt lat="47.37951" lon="-0.42171">
        <ele>60.4</ele>
        <time>2021-05-12T22:00:27Z</time>
      </trkpt>
      <trkpt lat="47.37934" lon="-0.42088">
        <ele>61.6</ele>
        <time>2021-05-12T22:00:39Z</time>
      </trkpt>
      <trkpt lat="47.37914" lon="-0.4201">
        <ele>63</ele>
        <time>2021-05-12T22:00:50Z</time>
      </trkpt>
      <trkpt lat="47.3789" lon="-0.4193">
        <ele>64.8</ele>
        <time>2021-05-12T22:01:02Z</time>
      </trkpt>
      <trkpt lat="47.37866" lon="-0.41855">
        <ele>66</ele>
        <time>2021-05-12T22:01:13Z</time>
      </trkpt>
      <trkpt lat="47.37845" lon="-0.41774">
        <ele>67.2</ele>
        <time>2021-05-12T22:01:25Z</time>
      </trkpt>
      <trkpt lat="47.37826" lon="-0.41695">
        <ele>68.6</ele>
        <time>2021-05-12T22:01:36Z</time>
      </trkpt>
      <trkpt lat="47.37814" lon="-0.41612">
        <ele>70</ele>
        <time>2021-05-12T22:01:48Z</time>
      </trkpt>
      <trkpt lat="47.37786" lon="-0.41578">
        <ele>69.6</ele>
        <time>2021-05-12T22:01:55Z</time>
      </trkpt>
      <trkpt lat="47.37738" lon="-0.41527">
        <ele>69</ele>
        <time>2021-05-12T22:02:07Z</time>
      </trkpt>
      <trkpt lat="47.37693" lon="-0.41472">
        <ele>68.8</ele>
        <time>2021-05-12T22:02:19Z</time>
      </trkpt>
      <trkpt lat="47.37655" lon="-0.41408">
        <ele>69</ele>
        <time>2021-05-12T22:02:30Z</time>
      </trkpt>
      <trkpt lat="47.37653" lon="-0.41402">
        <ele>69</ele>
        <time>2021-05-12T22:02:31Z</time>
      </trkpt>
      <trkpt lat="47.37654" lon="-0.41396">
        <ele>69</ele>
        <time>2021-05-12T22:02:32Z</time>
      </trkpt>
      <trkpt lat="47.37658" lon="-0.41388">
        <ele>69</ele>
        <time>2021-05-12T22:02:33Z</time>
      </trkpt>
      <trkpt lat="47.37662" lon="-0.41387">
        <ele>69</ele>
        <time>2021-05-12T22:02:34Z</time>
      </trkpt>
      <trkpt lat="47.37693" lon="-0.41381">
        <ele>69.6</ele>
        <time>2021-05-12T22:02:40Z</time>
      </trkpt>
      <trkpt lat="47.37721" lon="-0.41382">
        <ele>70</ele>
        <time>2021-05-12T22:02:46Z</time>
      </trkpt>
      <trkpt lat="47.37796" lon="-0.41407">
        <ele>71</ele>
        <time>2021-05-12T22:03:01Z</time>
      </trkpt>
      <trkpt lat="47.37809" lon="-0.41404">
        <ele>71.6</ele>
        <time>2021-05-12T22:03:04Z</time>
      </trkpt>
      <trkpt lat="47.37817" lon="-0.41399">
        <ele>72</ele>
        <time>2021-05-12T22:03:06Z</time>
      </trkpt>
      <trkpt lat="47.37869" lon="-0.4136">
        <ele>74.4</ele>
        <time>2021-05-12T22:03:18Z</time>
      </trkpt>
      <trkpt lat="47.37923" lon="-0.41333">
        <ele>75.6</ele>
        <time>2021-05-12T22:03:29Z</time>
      </trkpt>
      <trkpt lat="47.37977" lon="-0.41308">
        <ele>77.6</ele>
        <time>2021-05-12T22:03:40Z</time>
      </trkpt>
      <trkpt lat="47.38027" lon="-0.41271">
        <ele>77.2</ele>
        <time>2021-05-12T22:03:51Z</time>
      </trkpt>
      <trkpt lat="47.38036" lon="-0.41267">
        <ele>77</ele>
        <time>2021-05-12T22:03:53Z</time>
      </trkpt>
      <trkpt lat="47.38071" lon="-0.41265">
        <ele>75.4</ele>
        <time>2021-05-12T22:04:00Z</time>
      </trkpt>
      <trkpt lat="47.38075" lon="-0.41263">
        <ele>75.2</ele>
        <time>2021-05-12T22:04:01Z</time>
      </trkpt>
      <trkpt lat="47.38078" lon="-0.41257">
        <ele>75</ele>
        <time>2021-05-12T22:04:02Z</time>
      </trkpt>
      <trkpt lat="47.38079" lon="-0.41251">
        <ele>75</ele>
        <time>2021-05-12T22:04:03Z</time>
      </trkpt>
      <trkpt lat="47.38079" lon="-0.41244">
        <ele>75</ele>
        <time>2021-05-12T22:04:04Z</time>
      </trkpt>
      <trkpt lat="47.38066" lon="-0.41146">
        <ele>75.4</ele>
        <time>2021-05-12T22:04:17Z</time>
      </trkpt>
      <trkpt lat="47.38062" lon="-0.41061">
        <ele>76.6</ele>
        <time>2021-05-12T22:04:29Z</time>
      </trkpt>
      <trkpt lat="47.38063" lon="-0.41044">
        <ele>76.4</ele>
        <time>2021-05-12T22:04:31Z</time>
      </trkpt>
      <trkpt lat="47.38068" lon="-0.41038">
        <ele>76.4</ele>
        <time>2021-05-12T22:04:33Z</time>
      </trkpt>
      <trkpt lat="47.38135" lon="-0.41015">
        <ele>74.8</ele>
        <time>2021-05-12T22:04:46Z</time>
      </trkpt>
      <trkpt lat="47.38146" lon="-0.4101">
        <ele>74.4</ele>
        <time>2021-05-12T22:04:49Z</time>
      </trkpt>
      <trkpt lat="47.38151" lon="-0.41005">
        <ele>74.2</ele>
        <time>2021-05-12T22:04:50Z</time>
      </trkpt>
      <trkpt lat="47.38154" lon="-0.40998">
        <ele>74</ele>
        <time>2021-05-12T22:04:51Z</time>
      </trkpt>
      <trkpt lat="47.38156" lon="-0.40989">
        <ele>73.8</ele>
        <time>2021-05-12T22:04:52Z</time>
      </trkpt>
      <trkpt lat="47.38156" lon="-0.4098">
        <ele>74</ele>
        <time>2021-05-12T22:04:54Z</time>
      </trkpt>
      <trkpt lat="47.38136" lon="-0.40882">
        <ele>75</ele>
        <time>2021-05-12T22:05:07Z</time>
      </trkpt>
      <trkpt lat="47.38124" lon="-0.40795">
        <ele>75.2</ele>
        <time>2021-05-12T22:05:20Z</time>
      </trkpt>
      <trkpt lat="47.38122" lon="-0.40772">
        <ele>75.4</ele>
        <time>2021-05-12T22:05:23Z</time>
      </trkpt>
      <trkpt lat="47.38122" lon="-0.40765">
        <ele>75.4</ele>
        <time>2021-05-12T22:05:24Z</time>
      </trkpt>
      <trkpt lat="47.38124" lon="-0.40758">
        <ele>75.2</ele>
        <time>2021-05-12T22:05:25Z</time>
      </trkpt>
      <trkpt lat="47.38127" lon="-0.40752">
        <ele>75.2</ele>
        <time>2021-05-12T22:05:26Z</time>
      </trkpt>
      <trkpt lat="47.38131" lon="-0.40747">
        <ele>75.2</ele>
        <time>2021-05-12T22:05:27Z</time>
      </trkpt>
      <trkpt lat="47.38142" lon="-0.40741">
        <ele>74.8</ele>
        <time>2021-05-12T22:05:29Z</time>
      </trkpt>
      <trkpt lat="47.38235" lon="-0.40699">
        <ele>72.2</ele>
        <time>2021-05-12T22:05:49Z</time>
      </trkpt>
      <trkpt lat="47.3824" lon="-0.40694">
        <ele>72.2</ele>
        <time>2021-05-12T22:05:50Z</time>
      </trkpt>
      <trkpt lat="47.38244" lon="-0.40688">
        <ele>72</ele>
        <time>2021-05-12T22:05:51Z</time>
      </trkpt>
      <trkpt lat="47.38246" lon="-0.4068">
        <ele>72</ele>
        <time>2021-05-12T22:05:52Z</time>
      </trkpt>
      <trkpt lat="47.38246" lon="-0.40671">
        <ele>72</ele>
        <time>2021-05-12T22:05:53Z</time>
      </trkpt>
      <trkpt lat="47.38244" lon="-0.40655">
        <ele>72</ele>
        <time>2021-05-12T22:05:56Z</time>
      </trkpt>
      <trkpt lat="47.38244" lon="-0.40646">
        <ele>72</ele>
        <time>2021-05-12T22:05:57Z</time>
      </trkpt>
      <trkpt lat="47.38247" lon="-0.4063">
        <ele>72</ele>
        <time>2021-05-12T22:05:59Z</time>
      </trkpt>
      <trkpt lat="47.38251" lon="-0.40615">
        <ele>72</ele>
        <time>2021-05-12T22:06:01Z</time>
      </trkpt>
      <trkpt lat="47.38269" lon="-0.40539">
        <ele>73.2</ele>
        <time>2021-05-12T22:06:12Z</time>
      </trkpt>
      <trkpt lat="47.38273" lon="-0.40537">
        <ele>73.4</ele>
        <time>2021-05-12T22:06:13Z</time>
      </trkpt>
      <trkpt lat="47.38281" lon="-0.4054">
        <ele>73.6</ele>
        <time>2021-05-12T22:06:15Z</time>
      </trkpt>
      <trkpt lat="47.38288" lon="-0.40545">
        <ele>73.6</ele>
        <time>2021-05-12T22:06:16Z</time>
      </trkpt>
      <trkpt lat="47.38295" lon="-0.40552">
        <ele>73.8</ele>
        <time>2021-05-12T22:06:18Z</time>
      </trkpt>
      <trkpt lat="47.38349" lon="-0.40572">
        <ele>75.8</ele>
        <time>2021-05-12T22:06:29Z</time>
      </trkpt>
      <trkpt lat="47.38399" lon="-0.40563">
        <ele>78.4</ele>
        <time>2021-05-12T22:06:39Z</time>
      </trkpt>
      <trkpt lat="47.38436" lon="-0.40637">
        <ele>79.2</ele>
        <time>2021-05-12T22:06:52Z</time>
      </trkpt>
      <trkpt lat="47.3844" lon="-0.40648">
        <ele>79.2</ele>
        <time>2021-05-12T22:06:53Z</time>
      </trkpt>
      <trkpt lat="47.38444" lon="-0.40659">
        <ele>79.4</ele>
        <time>2021-05-12T22:06:55Z</time>
      </trkpt>
      <trkpt lat="47.38478" lon="-0.40832">
        <ele>80.6</ele>
        <time>2021-05-12T22:07:20Z</time>
      </trkpt>
      <trkpt lat="47.38484" lon="-0.40861">
        <ele>80.6</ele>
        <time>2021-05-12T22:07:24Z</time>
      </trkpt>
      <trkpt lat="47.38489" lon="-0.40872">
        <ele>80.8</ele>
        <time>2021-05-12T22:07:25Z</time>
      </trkpt>
      <trkpt lat="47.38492" lon="-0.40875">
        <ele>81</ele>
        <time>2021-05-12T22:07:26Z</time>
      </trkpt>
      <trkpt lat="47.38497" lon="-0.40877">
        <ele>81</ele>
        <time>2021-05-12T22:07:27Z</time>
      </trkpt>
      <trkpt lat="47.38501" lon="-0.40877">
        <ele>81</ele>
        <time>2021-05-12T22:07:28Z</time>
      </trkpt>
      <trkpt lat="47.38522" lon="-0.40873">
        <ele>81.2</ele>
        <time>2021-05-12T22:07:32Z</time>
      </trkpt>
      <trkpt lat="47.38527" lon="-0.40874">
        <ele>81.2</ele>
        <time>2021-05-12T22:07:33Z</time>
      </trkpt>
      <trkpt lat="47.3853" lon="-0.40877">
        <ele>81.2</ele>
        <time>2021-05-12T22:07:34Z</time>
      </trkpt>
      <trkpt lat="47.38534" lon="-0.4088">
        <ele>81.2</ele>
        <time>2021-05-12T22:07:35Z</time>
      </trkpt>
      <trkpt lat="47.38536" lon="-0.40885">
        <ele>81.2</ele>
        <time>2021-05-12T22:07:36Z</time>
      </trkpt>
      <trkpt lat="47.38541" lon="-0.40904">
        <ele>81</ele>
        <time>2021-05-12T22:07:38Z</time>
      </trkpt>
      <trkpt lat="47.38582" lon="-0.41135">
        <ele>80</ele>
        <time>2021-05-12T22:08:11Z</time>
      </trkpt>
      <trkpt lat="47.38614" lon="-0.41305">
        <ele>81</ele>
        <time>2021-05-12T22:08:35Z</time>
      </trkpt>
      <trkpt lat="47.38623" lon="-0.4136">
        <ele>81</ele>
        <time>2021-05-12T22:08:42Z</time>
      </trkpt>
      <trkpt lat="47.38622" lon="-0.41365">
        <ele>81</ele>
        <time>2021-05-12T22:08:43Z</time>
      </trkpt>
      <trkpt lat="47.38619" lon="-0.41369">
        <ele>81</ele>
        <time>2021-05-12T22:08:44Z</time>
      </trkpt>
      <trkpt lat="47.38611" lon="-0.41374">
        <ele>81</ele>
        <time>2021-05-12T22:08:46Z</time>
      </trkpt>
      <trkpt lat="47.38521" lon="-0.41408">
        <ele>81</ele>
        <time>2021-05-12T22:09:04Z</time>
      </trkpt>
      <trkpt lat="47.38517" lon="-0.41412">
        <ele>81</ele>
        <time>2021-05-12T22:09:05Z</time>
      </trkpt>
      <trkpt lat="47.38514" lon="-0.41419">
        <ele>81</ele>
        <time>2021-05-12T22:09:06Z</time>
      </trkpt>
      <trkpt lat="47.38514" lon="-0.41426">
        <ele>81</ele>
        <time>2021-05-12T22:09:07Z</time>
      </trkpt>
      <trkpt lat="47.38535" lon="-0.41523">
        <ele>81</ele>
        <time>2021-05-12T22:09:21Z</time>
      </trkpt>
      <trkpt lat="47.38621" lon="-0.41951">
        <ele>78.8</ele>
        <time>2021-05-12T22:10:22Z</time>
      </trkpt>
      <trkpt lat="47.3862" lon="-0.4196">
        <ele>78.6</ele>
        <time>2021-05-12T22:10:23Z</time>
      </trkpt>
      <trkpt lat="47.38614" lon="-0.41963">
        <ele>78.8</ele>
        <time>2021-05-12T22:10:24Z</time>
      </trkpt>
      <trkpt lat="47.38607" lon="-0.41963">
        <ele>78.8</ele>
        <time>2021-05-12T22:10:26Z</time>
      </trkpt>
      <trkpt lat="47.3854" lon="-0.4198">
        <ele>78.2</ele>
        <time>2021-05-12T22:10:39Z</time>
      </trkpt>
      <trkpt lat="47.38487" lon="-0.41991">
        <ele>76.8</ele>
        <time>2021-05-12T22:10:50Z</time>
      </trkpt>
      <trkpt lat="47.38483" lon="-0.41993">
        <ele>76.8</ele>
        <time>2021-05-12T22:10:51Z</time>
      </trkpt>
      <trkpt lat="47.3848" lon="-0.41999">
        <ele>76.6</ele>
        <time>2021-05-12T22:10:52Z</time>
      </trkpt>
      <trkpt lat="47.38476" lon="-0.42016">
        <ele>76.2</ele>
        <time>2021-05-12T22:10:54Z</time>
      </trkpt>
      <trkpt lat="47.38464" lon="-0.42031">
        <ele>75.6</ele>
        <time>2021-05-12T22:10:57Z</time>
      </trkpt>
      <trkpt lat="47.38459" lon="-0.42042">
        <ele>75</ele>
        <time>2021-05-12T22:10:59Z</time>
      </trkpt>
      <trkpt lat="47.38455" lon="-0.42055">
        <ele>74.4</ele>
        <time>2021-05-12T22:11:01Z</time>
      </trkpt>
      <trkpt lat="47.38456" lon="-0.4205">
        <ele>74.6</ele>
        <time>2021-05-12T22:11:02Z</time>
      </trkpt>
      <trkpt lat="47.3848" lon="-0.41994">
        <ele>76.6</ele>
        <time>2021-05-12T22:11:11Z</time>
      </trkpt>
      <trkpt lat="47.3849" lon="-0.41989">
        <ele>77</ele>
        <time>2021-05-12T22:11:13Z</time>
      </trkpt>
      <trkpt lat="47.38489" lon="-0.41984">
        <ele>77</ele>
        <time>2021-05-12T22:11:14Z</time>
      </trkpt>
      <trkpt lat="47.38479" lon="-0.41993">
        <ele>76.6</ele>
        <time>2021-05-12T22:11:16Z</time>
      </trkpt>
      <trkpt lat="47.38478" lon="-0.41997">
        <ele>76.6</ele>
        <time>2021-05-12T22:11:17Z</time>
      </trkpt>
      <trkpt lat="47.38478" lon="-0.42047">
        <ele>75.6</ele>
        <time>2021-05-12T22:11:24Z</time>
      </trkpt>
      <trkpt lat="47.38477" lon="-0.42102">
        <ele>74.4</ele>
        <time>2021-05-12T22:11:31Z</time>
      </trkpt>
      <trkpt lat="47.38476" lon="-0.4211">
        <ele>74.2</ele>
        <time>2021-05-12T22:11:32Z</time>
      </trkpt>
      <trkpt lat="47.38468" lon="-0.42136">
        <ele>73.4</ele>
        <time>2021-05-12T22:11:36Z</time>
      </trkpt>
      <trkpt lat="47.38445" lon="-0.4222">
        <ele>74</ele>
        <time>2021-05-12T22:11:49Z</time>
      </trkpt>
      <trkpt lat="47.3844" lon="-0.42268">
        <ele>75</ele>
        <time>2021-05-12T22:11:55Z</time>
      </trkpt>
      <trkpt lat="47.38427" lon="-0.4232">
        <ele>75.8</ele>
        <time>2021-05-12T22:12:03Z</time>
      </trkpt>
      <trkpt lat="47.38423" lon="-0.42353">
        <ele>76.2</ele>
        <time>2021-05-12T22:12:07Z</time>
      </trkpt>
      <trkpt lat="47.38426" lon="-0.4236">
        <ele>76</ele>
        <time>2021-05-12T22:12:08Z</time>
      </trkpt>
      <trkpt lat="47.38434" lon="-0.42369">
        <ele>76.2</ele>
        <time>2021-05-12T22:12:10Z</time>
      </trkpt>
      <trkpt lat="47.38439" lon="-0.42372">
        <ele>76.2</ele>
        <time>2021-05-12T22:12:12Z</time>
      </trkpt>
      <trkpt lat="47.3846" lon="-0.42384">
        <ele>76.6</ele>
        <time>2021-05-12T22:12:16Z</time>
      </trkpt>
      <trkpt lat="47.38444" lon="-0.42385">
        <ele>76.2</ele>
        <time>2021-05-12T22:12:19Z</time>
      </trkpt>
      <trkpt lat="47.38437" lon="-0.42389">
        <ele>76</ele>
        <time>2021-05-12T22:12:21Z</time>
      </trkpt>
      <trkpt lat="47.38434" lon="-0.42397">
        <ele>75.8</ele>
        <time>2021-05-12T22:12:22Z</time>
      </trkpt>
      <trkpt lat="47.38435" lon="-0.42405">
        <ele>75.6</ele>
        <time>2021-05-12T22:12:23Z</time>
      </trkpt>
      <trkpt lat="47.38434" lon="-0.42421">
        <ele>75.2</ele>
        <time>2021-05-12T22:12:25Z</time>
      </trkpt>
      <trkpt lat="47.38433" lon="-0.42434">
        <ele>74.6</ele>
        <time>2021-05-12T22:12:27Z</time>
      </trkpt>
      <trkpt lat="47.38435" lon="-0.42471">
        <ele>73</ele>
        <time>2021-05-12T22:12:32Z</time>
      </trkpt>
      <trkpt lat="47.38431" lon="-0.4253">
        <ele>70</ele>
        <time>2021-05-12T22:12:40Z</time>
      </trkpt>
      <trkpt lat="47.38431" lon="-0.42552">
        <ele>69</ele>
        <time>2021-05-12T22:12:43Z</time>
      </trkpt>
      <trkpt lat="47.38435" lon="-0.42598">
        <ele>67.6</ele>
        <time>2021-05-12T22:12:50Z</time>
      </trkpt>
      <trkpt lat="47.38439" lon="-0.42614">
        <ele>67</ele>
        <time>2021-05-12T22:12:52Z</time>
      </trkpt>
      <trkpt lat="47.38442" lon="-0.42641">
        <ele>66.2</ele>
        <time>2021-05-12T22:12:56Z</time>
      </trkpt>
      <trkpt lat="47.38447" lon="-0.42706">
        <ele>64.6</ele>
        <time>2021-05-12T22:13:04Z</time>
      </trkpt>
      <trkpt lat="47.38472" lon="-0.42836">
        <ele>64.4</ele>
        <time>2021-05-12T22:13:23Z</time>
      </trkpt>
      <trkpt lat="47.38475" lon="-0.42844">
        <ele>64.4</ele>
        <time>2021-05-12T22:13:24Z</time>
      </trkpt>
      <trkpt lat="47.38479" lon="-0.42851">
        <ele>64.6</ele>
        <time>2021-05-12T22:13:25Z</time>
      </trkpt>
      <trkpt lat="47.38488" lon="-0.42863">
        <ele>64.8</ele>
        <time>2021-05-12T22:13:28Z</time>
      </trkpt>
      <trkpt lat="47.38533" lon="-0.42927">
        <ele>66</ele>
        <time>2021-05-12T22:13:40Z</time>
      </trkpt>
      <trkpt lat="47.38559" lon="-0.43004">
        <ele>65.8</ele>
        <time>2021-05-12T22:13:52Z</time>
      </trkpt>
      <trkpt lat="47.3858" lon="-0.43126">
        <ele>64.4</ele>
        <time>2021-05-12T22:14:09Z</time>
      </trkpt>
      <trkpt lat="47.38645" lon="-0.4337">
        <ele>62.8</ele>
        <time>2021-05-12T22:14:45Z</time>
      </trkpt>
      <trkpt lat="47.38661" lon="-0.43428">
        <ele>62</ele>
        <time>2021-05-12T22:14:53Z</time>
      </trkpt>
      <trkpt lat="47.38711" lon="-0.4354">
        <ele>61</ele>
        <time>2021-05-12T22:15:11Z</time>
      </trkpt>
      <trkpt lat="47.3873" lon="-0.43626">
        <ele>59.2</ele>
        <time>2021-05-12T22:15:24Z</time>
      </trkpt>
      <trkpt lat="47.38747" lon="-0.43718">
        <ele>56.4</ele>
        <time>2021-05-12T22:15:37Z</time>
      </trkpt>
      <trkpt lat="47.38766" lon="-0.43772">
        <ele>54</ele>
        <time>2021-05-12T22:15:45Z</time>
      </trkpt>
      <trkpt lat="47.38774" lon="-0.43781">
        <ele>53.4</ele>
        <time>2021-05-12T22:15:47Z</time>
      </trkpt>
      <trkpt lat="47.38779" lon="-0.43782">
        <ele>53</ele>
        <time>2021-05-12T22:15:48Z</time>
      </trkpt>
      <trkpt lat="47.38797" lon="-0.43784">
        <ele>51.8</ele>
        <time>2021-05-12T22:15:51Z</time>
      </trkpt>
      <trkpt lat="47.38802" lon="-0.43787">
        <ele>51.2</ele>
        <time>2021-05-12T22:15:53Z</time>
      </trkpt>
      <trkpt lat="47.38805" lon="-0.43793">
        <ele>50.8</ele>
        <time>2021-05-12T22:15:54Z</time>
      </trkpt>
      <trkpt lat="47.38808" lon="-0.438">
        <ele>50.6</ele>
        <time>2021-05-12T22:15:55Z</time>
      </trkpt>
      <trkpt lat="47.3881" lon="-0.43817">
        <ele>50</ele>
        <time>2021-05-12T22:15:57Z</time>
      </trkpt>
      <trkpt lat="47.38818" lon="-0.43926">
        <ele>49</ele>
        <time>2021-05-12T22:16:12Z</time>
      </trkpt>
      <trkpt lat="47.38827" lon="-0.44157">
        <ele>44</ele>
        <time>2021-05-12T22:16:43Z</time>
      </trkpt>
      <trkpt lat="47.38826" lon="-0.44163">
        <ele>43.8</ele>
        <time>2021-05-12T22:16:44Z</time>
      </trkpt>
      <trkpt lat="47.38823" lon="-0.44167">
        <ele>43.8</ele>
        <time>2021-05-12T22:16:45Z</time>
      </trkpt>
      <trkpt lat="47.3882" lon="-0.44168">
        <ele>43.8</ele>
        <time>2021-05-12T22:16:46Z</time>
      </trkpt>
      <trkpt lat="47.38753" lon="-0.4417">
        <ele>45.2</ele>
        <time>2021-05-12T22:16:59Z</time>
      </trkpt>
      <trkpt lat="47.38621" lon="-0.44211">
        <ele>43.2</ele>
        <time>2021-05-12T22:17:26Z</time>
      </trkpt>
      <trkpt lat="47.38616" lon="-0.44215">
        <ele>43</ele>
        <time>2021-05-12T22:17:27Z</time>
      </trkpt>
      <trkpt lat="47.38612" lon="-0.4422">
        <ele>43</ele>
        <time>2021-05-12T22:17:28Z</time>
      </trkpt>
      <trkpt lat="47.38611" lon="-0.44228">
        <ele>43</ele>
        <time>2021-05-12T22:17:29Z</time>
      </trkpt>
      <trkpt lat="47.38611" lon="-0.44236">
        <ele>42.8</ele>
        <time>2021-05-12T22:17:30Z</time>
      </trkpt>
      <trkpt lat="47.38641" lon="-0.4433">
        <ele>42</ele>
        <time>2021-05-12T22:17:45Z</time>
      </trkpt>
      <trkpt lat="47.3869" lon="-0.44474">
        <ele>41.4</ele>
        <time>2021-05-12T22:18:06Z</time>
      </trkpt>
      <trkpt lat="47.38732" lon="-0.4474">
        <ele>41.2</ele>
        <time>2021-05-12T22:18:44Z</time>
      </trkpt>
      <trkpt lat="47.38738" lon="-0.44765">
        <ele>41.4</ele>
        <time>2021-05-12T22:18:47Z</time>
      </trkpt>
      <trkpt lat="47.38743" lon="-0.44781">
        <ele>41.6</ele>
        <time>2021-05-12T22:18:49Z</time>
      </trkpt>
      <trkpt lat="47.38757" lon="-0.44815">
        <ele>42</ele>
        <time>2021-05-12T22:18:55Z</time>
      </trkpt>
      <trkpt lat="47.38758" lon="-0.44822">
        <ele>42.2</ele>
        <time>2021-05-12T22:18:56Z</time>
      </trkpt>
      <trkpt lat="47.38757" lon="-0.44828">
        <ele>42.4</ele>
        <time>2021-05-12T22:18:57Z</time>
      </trkpt>
      <trkpt lat="47.38754" lon="-0.44834">
        <ele>42.6</ele>
        <time>2021-05-12T22:18:58Z</time>
      </trkpt>
      <trkpt lat="47.38717" lon="-0.44886">
        <ele>44</ele>
        <time>2021-05-12T22:19:08Z</time>
      </trkpt>
      <trkpt lat="47.38715" lon="-0.44891">
        <ele>44.2</ele>
        <time>2021-05-12T22:19:09Z</time>
      </trkpt>
      <trkpt lat="47.38714" lon="-0.44902">
        <ele>44.4</ele>
        <time>2021-05-12T22:19:10Z</time>
      </trkpt>
      <trkpt lat="47.38714" lon="-0.44907">
        <ele>44.4</ele>
        <time>2021-05-12T22:19:11Z</time>
      </trkpt>
      <trkpt lat="47.38756" lon="-0.45062">
        <ele>47.6</ele>
        <time>2021-05-12T22:19:33Z</time>
      </trkpt>
      <trkpt lat="47.38782" lon="-0.45175">
        <ele>48.4</ele>
        <time>2021-05-12T22:19:50Z</time>
      </trkpt>
      <trkpt lat="47.38799" lon="-0.45257">
        <ele>47.8</ele>
        <time>2021-05-12T22:20:01Z</time>
      </trkpt>
      <trkpt lat="47.38818" lon="-0.45333">
        <ele>47.4</ele>
        <time>2021-05-12T22:20:12Z</time>
      </trkpt>
      <trkpt lat="47.38826" lon="-0.45361">
        <ele>47.2</ele>
        <time>2021-05-12T22:20:17Z</time>
      </trkpt>
      <trkpt lat="47.38829" lon="-0.45367">
        <ele>47.2</ele>
        <time>2021-05-12T22:20:18Z</time>
      </trkpt>
      <trkpt lat="47.38835" lon="-0.45369">
        <ele>47</ele>
        <time>2021-05-12T22:20:19Z</time>
      </trkpt>
      <trkpt lat="47.38845" lon="-0.4537">
        <ele>46.8</ele>
        <time>2021-05-12T22:20:21Z</time>
      </trkpt>
      <trkpt lat="47.38852" lon="-0.45375">
        <ele>46.6</ele>
        <time>2021-05-12T22:20:22Z</time>
      </trkpt>
      <trkpt lat="47.38855" lon="-0.4538">
        <ele>46.6</ele>
        <time>2021-05-12T22:20:23Z</time>
      </trkpt>
      <trkpt lat="47.38859" lon="-0.45391">
        <ele>46.4</ele>
        <time>2021-05-12T22:20:25Z</time>
      </trkpt>
      <trkpt lat="47.38862" lon="-0.45406">
        <ele>46.4</ele>
        <time>2021-05-12T22:20:27Z</time>
      </trkpt>
      <trkpt lat="47.38871" lon="-0.45495">
        <ele>45</ele>
        <time>2021-05-12T22:20:39Z</time>
      </trkpt>
      <trkpt lat="47.38876" lon="-0.45585">
        <ele>44.4</ele>
        <time>2021-05-12T22:20:52Z</time>
      </trkpt>
      <trkpt lat="47.38888" lon="-0.45647">
        <ele>45</ele>
        <time>2021-05-12T22:21:00Z</time>
      </trkpt>
      <trkpt lat="47.38916" lon="-0.45724">
        <ele>44.6</ele>
        <time>2021-05-12T22:21:12Z</time>
      </trkpt>
      <trkpt lat="47.38932" lon="-0.45737">
        <ele>44.6</ele>
        <time>2021-05-12T22:21:16Z</time>
      </trkpt>
      <trkpt lat="47.38936" lon="-0.45734">
        <ele>44.6</ele>
        <time>2021-05-12T22:21:17Z</time>
      </trkpt>
      <trkpt lat="47.38999" lon="-0.45666">
        <ele>41.8</ele>
        <time>2021-05-12T22:21:33Z</time>
      </trkpt>
      <trkpt lat="47.3905" lon="-0.45616">
        <ele>40.2</ele>
        <time>2021-05-12T22:21:45Z</time>
      </trkpt>
      <trkpt lat="47.39159" lon="-0.45516">
        <ele>36.2</ele>
        <time>2021-05-12T22:22:11Z</time>
      </trkpt>
      <trkpt lat="47.3924" lon="-0.45454">
        <ele>33.2</ele>
        <time>2021-05-12T22:22:29Z</time>
      </trkpt>
      <trkpt lat="47.39285" lon="-0.454">
        <ele>31.4</ele>
        <time>2021-05-12T22:22:40Z</time>
      </trkpt>
      <trkpt lat="47.39307" lon="-0.4536">
        <ele>30.6</ele>
        <time>2021-05-12T22:22:47Z</time>
      </trkpt>
      <trkpt lat="47.39314" lon="-0.45343">
        <ele>30.4</ele>
        <time>2021-05-12T22:22:50Z</time>
      </trkpt>
      <trkpt lat="47.39319" lon="-0.45337">
        <ele>30.2</ele>
        <time>2021-05-12T22:22:51Z</time>
      </trkpt>
      <trkpt lat="47.39325" lon="-0.45334">
        <ele>30.2</ele>
        <time>2021-05-12T22:22:53Z</time>
      </trkpt>
      <trkpt lat="47.3933" lon="-0.45334">
        <ele>30</ele>
        <time>2021-05-12T22:22:54Z</time>
      </trkpt>
      <trkpt lat="47.39336" lon="-0.45336">
        <ele>30</ele>
        <time>2021-05-12T22:22:55Z</time>
      </trkpt>
      <trkpt lat="47.39342" lon="-0.4534">
        <ele>29.8</ele>
        <time>2021-05-12T22:22:56Z</time>
      </trkpt>
      <trkpt lat="47.39357" lon="-0.45354">
        <ele>29.8</ele>
        <time>2021-05-12T22:23:00Z</time>
      </trkpt>
      <trkpt lat="47.39361" lon="-0.45356">
        <ele>29.8</ele>
        <time>2021-05-12T22:23:01Z</time>
      </trkpt>
      <trkpt lat="47.39378" lon="-0.4536">
        <ele>29.6</ele>
        <time>2021-05-12T22:23:04Z</time>
      </trkpt>
      <trkpt lat="47.39381" lon="-0.45359">
        <ele>29.6</ele>
        <time>2021-05-12T22:23:05Z</time>
      </trkpt>
      <trkpt lat="47.39441" lon="-0.45331">
        <ele>28.6</ele>
        <time>2021-05-12T22:23:17Z</time>
      </trkpt>
      <trkpt lat="47.39471" lon="-0.45319">
        <ele>28</ele>
        <time>2021-05-12T22:23:24Z</time>
      </trkpt>
      <trkpt lat="47.39481" lon="-0.45312">
        <ele>28</ele>
        <time>2021-05-12T22:23:26Z</time>
      </trkpt>
      <trkpt lat="47.39528" lon="-0.45255">
        <ele>28</ele>
        <time>2021-05-12T22:23:38Z</time>
      </trkpt>
      <trkpt lat="47.39548" lon="-0.45227">
        <ele>28.4</ele>
        <time>2021-05-12T22:23:43Z</time>
      </trkpt>
      <trkpt lat="47.39552" lon="-0.45223">
        <ele>28.6</ele>
        <time>2021-05-12T22:23:44Z</time>
      </trkpt>
      <trkpt lat="47.39557" lon="-0.45221">
        <ele>28.6</ele>
        <time>2021-05-12T22:23:45Z</time>
      </trkpt>
      <trkpt lat="47.39561" lon="-0.45222">
        <ele>28.6</ele>
        <time>2021-05-12T22:23:46Z</time>
      </trkpt>
      <trkpt lat="47.39567" lon="-0.45226">
        <ele>28.4</ele>
        <time>2021-05-12T22:23:47Z</time>
      </trkpt>
      <trkpt lat="47.39571" lon="-0.45231">
        <ele>28.4</ele>
        <time>2021-05-12T22:23:49Z</time>
      </trkpt>
      <trkpt lat="47.39579" lon="-0.45244">
        <ele>28.2</ele>
        <time>2021-05-12T22:23:51Z</time>
      </trkpt>
      <trkpt lat="47.39583" lon="-0.45249">
        <ele>28.2</ele>
        <time>2021-05-12T22:23:52Z</time>
      </trkpt>
      <trkpt lat="47.39594" lon="-0.45257">
        <ele>28</ele>
        <time>2021-05-12T22:23:54Z</time>
      </trkpt>
      <trkpt lat="47.39604" lon="-0.45261">
        <ele>28</ele>
        <time>2021-05-12T22:23:57Z</time>
      </trkpt>
      <trkpt lat="47.39623" lon="-0.45264">
        <ele>28.4</ele>
        <time>2021-05-12T22:24:00Z</time>
      </trkpt>
      <trkpt lat="47.39632" lon="-0.4526">
        <ele>28.6</ele>
        <time>2021-05-12T22:24:02Z</time>
      </trkpt>
    </trkseg>
  </trk>
</gpx>